<?xml version="1.0" encoding="UTF-8"?>
<gpx version="1.1" creator="https://www.youtrack.es" xsi:schemaLocation="http://www.topografix.com/GPX/1/1 http://www.topografix.com/GPX/1/1/gpx.xsd http://www.garmin.com/xmlschemas/GpxExtensions/v3 http://www.garmin.com/xmlschemas/GpxExtensionsv3.xsd http://www.garmin.com/xmlschemas/TrackPointExtension/v1 http://www.garmin.com/xmlschemas/TrackPointExtensionv1.xsd" xmlns:gpxtpx="http://www.garmin.com/xmlschemas/TrackPointExtension/v1" xmlns:gpxx="http://www.garmin.com/xmlschemas/GpxExtensions/v3" xmlns:xsi="http://www.w3.org/2001/XMLSchema-instance">
  <metadata>
    <link href="https://www.youtrack.es">
      <text>YouTrack.es</text>
    </link>
    <time>2026-05-08T02:41:00Z</time>
  </metadata>
  <trk>
    <src>https://www.youtrack.es</src>
    <link href="https://www.youtrack.es/ruta/1556-goierriko-bira">
      <text>YouTrack.es</text>
    </link>
    <trkseg>
      <trkpt lat="43.053323" lon="-2.133067">
        <ele>458.249</ele>
        <time>2018-06-09T05:29:19Z</time>
      </trkpt>
      <trkpt lat="43.053842" lon="-2.133538">
        <ele>457.202</ele>
        <time>2018-06-09T05:30:49Z</time>
      </trkpt>
      <trkpt lat="43.054593" lon="-2.134774">
        <ele>459.622</ele>
        <time>2018-06-09T05:32:26Z</time>
      </trkpt>
      <trkpt lat="43.056506" lon="-2.135891">
        <ele>483.608</ele>
        <time>2018-06-09T05:35:54Z</time>
      </trkpt>
      <trkpt lat="43.057655" lon="-2.136888">
        <ele>489.926</ele>
        <time>2018-06-09T05:37:56Z</time>
      </trkpt>
      <trkpt lat="43.059680" lon="-2.138278">
        <ele>491.369</ele>
        <time>2018-06-09T05:40:57Z</time>
      </trkpt>
      <trkpt lat="43.060494" lon="-2.139688">
        <ele>490.480</ele>
        <time>2018-06-09T05:42:56Z</time>
      </trkpt>
      <trkpt lat="43.061070" lon="-2.140278">
        <ele>482.299</ele>
        <time>2018-06-09T05:43:54Z</time>
      </trkpt>
      <trkpt lat="43.061819" lon="-2.142070">
        <ele>469.745</ele>
        <time>2018-06-09T05:45:52Z</time>
      </trkpt>
      <trkpt lat="43.062442" lon="-2.142211">
        <ele>473.174</ele>
        <time>2018-06-09T05:46:48Z</time>
      </trkpt>
      <trkpt lat="43.063225" lon="-2.143046">
        <ele>470.711</ele>
        <time>2018-06-09T05:48:08Z</time>
      </trkpt>
      <trkpt lat="43.064370" lon="-2.143431">
        <ele>466.314</ele>
        <time>2018-06-09T05:49:40Z</time>
      </trkpt>
      <trkpt lat="43.064769" lon="-2.144044">
        <ele>469.273</ele>
        <time>2018-06-09T05:50:31Z</time>
      </trkpt>
      <trkpt lat="43.065699" lon="-2.144794">
        <ele>471.185</ele>
        <time>2018-06-09T05:51:57Z</time>
      </trkpt>
      <trkpt lat="43.067675" lon="-2.147334">
        <ele>485.113</ele>
        <time>2018-06-09T05:55:31Z</time>
      </trkpt>
      <trkpt lat="43.069373" lon="-2.148458">
        <ele>484.608</ele>
        <time>2018-06-09T05:58:03Z</time>
      </trkpt>
      <trkpt lat="43.069944" lon="-2.149751">
        <ele>475.069</ele>
        <time>2018-06-09T05:59:27Z</time>
      </trkpt>
      <trkpt lat="43.070923" lon="-2.150211">
        <ele>461.052</ele>
        <time>2018-06-09T06:01:08Z</time>
      </trkpt>
      <trkpt lat="43.071263" lon="-2.148278">
        <ele>463.093</ele>
        <time>2018-06-09T06:03:12Z</time>
      </trkpt>
      <trkpt lat="43.071589" lon="-2.147703">
        <ele>466.852</ele>
        <time>2018-06-09T06:04:07Z</time>
      </trkpt>
      <trkpt lat="43.072293" lon="-2.146954">
        <ele>462.518</ele>
        <time>2018-06-09T06:05:47Z</time>
      </trkpt>
      <trkpt lat="43.072411" lon="-2.146373">
        <ele>456.277</ele>
        <time>2018-06-09T06:06:31Z</time>
      </trkpt>
      <trkpt lat="43.073365" lon="-2.145644">
        <ele>445.794</ele>
        <time>2018-06-09T06:07:55Z</time>
      </trkpt>
      <trkpt lat="43.074636" lon="-2.145367">
        <ele>432.777</ele>
        <time>2018-06-09T06:09:57Z</time>
      </trkpt>
      <trkpt lat="43.075170" lon="-2.145722">
        <ele>422.142</ele>
        <time>2018-06-09T06:10:40Z</time>
      </trkpt>
      <trkpt lat="43.075594" lon="-2.146830">
        <ele>407.722</ele>
        <time>2018-06-09T06:14:01Z</time>
      </trkpt>
      <trkpt lat="43.075918" lon="-2.146933">
        <ele>400.014</ele>
        <time>2018-06-09T06:15:17Z</time>
      </trkpt>
      <trkpt lat="43.076649" lon="-2.147544">
        <ele>372.108</ele>
        <time>2018-06-09T06:17:18Z</time>
      </trkpt>
      <trkpt lat="43.076645" lon="-2.148078">
        <ele>365.446</ele>
        <time>2018-06-09T06:18:53Z</time>
      </trkpt>
      <trkpt lat="43.076880" lon="-2.148606">
        <ele>352.919</ele>
        <time>2018-06-09T06:19:36Z</time>
      </trkpt>
      <trkpt lat="43.077255" lon="-2.148801">
        <ele>341.450</ele>
        <time>2018-06-09T06:20:24Z</time>
      </trkpt>
      <trkpt lat="43.077692" lon="-2.148705">
        <ele>333.259</ele>
        <time>2018-06-09T06:21:02Z</time>
      </trkpt>
      <trkpt lat="43.077578" lon="-2.149527">
        <ele>321.725</ele>
        <time>2018-06-09T06:22:28Z</time>
      </trkpt>
      <trkpt lat="43.078854" lon="-2.149920">
        <ele>279.414</ele>
        <time>2018-06-09T06:25:31Z</time>
      </trkpt>
      <trkpt lat="43.079600" lon="-2.149214">
        <ele>260.141</ele>
        <time>2018-06-09T06:27:04Z</time>
      </trkpt>
      <trkpt lat="43.079838" lon="-2.148174">
        <ele>249.634</ele>
        <time>2018-06-09T06:28:09Z</time>
      </trkpt>
      <trkpt lat="43.080007" lon="-2.148044">
        <ele>245.795</ele>
        <time>2018-06-09T06:28:27Z</time>
      </trkpt>
      <trkpt lat="43.080216" lon="-2.148926">
        <ele>236.149</ele>
        <time>2018-06-09T06:29:22Z</time>
      </trkpt>
      <trkpt lat="43.080567" lon="-2.149083">
        <ele>229.823</ele>
        <time>2018-06-09T06:29:52Z</time>
      </trkpt>
      <trkpt lat="43.081495" lon="-2.148985">
        <ele>217.808</ele>
        <time>2018-06-09T06:31:04Z</time>
      </trkpt>
      <trkpt lat="43.081676" lon="-2.149616">
        <ele>215.921</ele>
        <time>2018-06-09T06:31:43Z</time>
      </trkpt>
      <trkpt lat="43.081296" lon="-2.150682">
        <ele>207.344</ele>
        <time>2018-06-09T06:32:55Z</time>
      </trkpt>
      <trkpt lat="43.081786" lon="-2.150468">
        <ele>200.535</ele>
        <time>2018-06-09T06:33:38Z</time>
      </trkpt>
      <trkpt lat="43.082616" lon="-2.151156">
        <ele>187.184</ele>
        <time>2018-06-09T06:34:57Z</time>
      </trkpt>
      <trkpt lat="43.083093" lon="-2.151322">
        <ele>178.950</ele>
        <time>2018-06-09T06:35:36Z</time>
      </trkpt>
      <trkpt lat="43.084561" lon="-2.151285">
        <ele>157.359</ele>
        <time>2018-06-09T06:37:30Z</time>
      </trkpt>
      <trkpt lat="43.084901" lon="-2.150944">
        <ele>150.166</ele>
        <time>2018-06-09T06:38:06Z</time>
      </trkpt>
      <trkpt lat="43.084488" lon="-2.149824">
        <ele>136.179</ele>
        <time>2018-06-09T06:39:27Z</time>
      </trkpt>
      <trkpt lat="43.085337" lon="-2.150324">
        <ele>124.173</ele>
        <time>2018-06-09T06:40:56Z</time>
      </trkpt>
      <trkpt lat="43.085115" lon="-2.150057">
        <ele>122.785</ele>
        <time>2018-06-09T06:41:28Z</time>
      </trkpt>
      <trkpt lat="43.085459" lon="-2.149786">
        <ele>120.313</ele>
        <time>2018-06-09T06:42:02Z</time>
      </trkpt>
      <trkpt lat="43.085068" lon="-2.147958">
        <ele>118.308</ele>
        <time>2018-06-09T06:43:45Z</time>
      </trkpt>
      <trkpt lat="43.084638" lon="-2.146978">
        <ele>119.399</ele>
        <time>2018-06-09T06:44:51Z</time>
      </trkpt>
      <trkpt lat="43.084772" lon="-2.146499">
        <ele>118.862</ele>
        <time>2018-06-09T06:45:23Z</time>
      </trkpt>
      <trkpt lat="43.085160" lon="-2.146433">
        <ele>116.943</ele>
        <time>2018-06-09T06:45:58Z</time>
      </trkpt>
      <trkpt lat="43.085388" lon="-2.146088">
        <ele>117.972</ele>
        <time>2018-06-09T06:46:24Z</time>
      </trkpt>
      <trkpt lat="43.085754" lon="-2.145341">
        <ele>135.698</ele>
        <time>2018-06-09T06:48:52Z</time>
      </trkpt>
      <trkpt lat="43.085689" lon="-2.144943">
        <ele>144.317</ele>
        <time>2018-06-09T06:49:47Z</time>
      </trkpt>
      <trkpt lat="43.085980" lon="-2.144746">
        <ele>148.674</ele>
        <time>2018-06-09T06:50:21Z</time>
      </trkpt>
      <trkpt lat="43.086111" lon="-2.144362">
        <ele>151.067</ele>
        <time>2018-06-09T06:51:09Z</time>
      </trkpt>
      <trkpt lat="43.086376" lon="-2.144171">
        <ele>155.817</ele>
        <time>2018-06-09T06:51:47Z</time>
      </trkpt>
      <trkpt lat="43.086893" lon="-2.144572">
        <ele>163.087</ele>
        <time>2018-06-09T06:55:22Z</time>
      </trkpt>
      <trkpt lat="43.087563" lon="-2.144423">
        <ele>171.715</ele>
        <time>2018-06-09T06:56:33Z</time>
      </trkpt>
      <trkpt lat="43.087987" lon="-2.144069">
        <ele>181.308</ele>
        <time>2018-06-09T06:57:35Z</time>
      </trkpt>
      <trkpt lat="43.087432" lon="-2.143799">
        <ele>185.113</ele>
        <time>2018-06-09T06:59:50Z</time>
      </trkpt>
      <trkpt lat="43.087369" lon="-2.143336">
        <ele>191.936</ele>
        <time>2018-06-09T07:00:49Z</time>
      </trkpt>
      <trkpt lat="43.088325" lon="-2.142584">
        <ele>221.717</ele>
        <time>2018-06-09T07:04:09Z</time>
      </trkpt>
      <trkpt lat="43.088934" lon="-2.142567">
        <ele>224.136</ele>
        <time>2018-06-09T07:05:17Z</time>
      </trkpt>
      <trkpt lat="43.089708" lon="-2.142062">
        <ele>230.852</ele>
        <time>2018-06-09T07:06:33Z</time>
      </trkpt>
      <trkpt lat="43.092062" lon="-2.142158">
        <ele>239.521</ele>
        <time>2018-06-09T07:09:54Z</time>
      </trkpt>
      <trkpt lat="43.092460" lon="-2.141974">
        <ele>237.168</ele>
        <time>2018-06-09T07:10:31Z</time>
      </trkpt>
      <trkpt lat="43.093013" lon="-2.142015">
        <ele>233.781</ele>
        <time>2018-06-09T07:11:15Z</time>
      </trkpt>
      <trkpt lat="43.093654" lon="-2.141808">
        <ele>229.817</ele>
        <time>2018-06-09T07:11:58Z</time>
      </trkpt>
      <trkpt lat="43.094844" lon="-2.143309">
        <ele>227.087</ele>
        <time>2018-06-09T07:14:04Z</time>
      </trkpt>
      <trkpt lat="43.095236" lon="-2.143497">
        <ele>223.615</ele>
        <time>2018-06-09T07:14:44Z</time>
      </trkpt>
      <trkpt lat="43.095366" lon="-2.144165">
        <ele>229.408</ele>
        <time>2018-06-09T07:15:41Z</time>
      </trkpt>
      <trkpt lat="43.095668" lon="-2.144684">
        <ele>232.733</ele>
        <time>2018-06-09T07:16:40Z</time>
      </trkpt>
      <trkpt lat="43.096257" lon="-2.146512">
        <ele>251.096</ele>
        <time>2018-06-09T07:19:53Z</time>
      </trkpt>
      <trkpt lat="43.096418" lon="-2.147642">
        <ele>265.437</ele>
        <time>2018-06-09T07:21:47Z</time>
      </trkpt>
      <trkpt lat="43.096317" lon="-2.147797">
        <ele>268.866</ele>
        <time>2018-06-09T07:22:09Z</time>
      </trkpt>
      <trkpt lat="43.095454" lon="-2.146408">
        <ele>284.642</ele>
        <time>2018-06-09T07:25:00Z</time>
      </trkpt>
      <trkpt lat="43.095266" lon="-2.146365">
        <ele>286.681</ele>
        <time>2018-06-09T07:25:26Z</time>
      </trkpt>
      <trkpt lat="43.094913" lon="-2.146829">
        <ele>293.858</ele>
        <time>2018-06-09T07:26:33Z</time>
      </trkpt>
      <trkpt lat="43.095025" lon="-2.148235">
        <ele>323.161</ele>
        <time>2018-06-09T07:29:28Z</time>
      </trkpt>
      <trkpt lat="43.095587" lon="-2.150085">
        <ele>354.822</ele>
        <time>2018-06-09T07:32:56Z</time>
      </trkpt>
      <trkpt lat="43.095587" lon="-2.151059">
        <ele>376.062</ele>
        <time>2018-06-09T07:34:53Z</time>
      </trkpt>
      <trkpt lat="43.095907" lon="-2.151921">
        <ele>391.808</ele>
        <time>2018-06-09T07:36:38Z</time>
      </trkpt>
      <trkpt lat="43.095883" lon="-2.152568">
        <ele>402.408</ele>
        <time>2018-06-09T07:37:50Z</time>
      </trkpt>
      <trkpt lat="43.095429" lon="-2.153201">
        <ele>418.364</ele>
        <time>2018-06-09T07:39:26Z</time>
      </trkpt>
      <trkpt lat="43.095417" lon="-2.153423">
        <ele>421.667</ele>
        <time>2018-06-09T07:39:52Z</time>
      </trkpt>
      <trkpt lat="43.095993" lon="-2.153579">
        <ele>433.668</ele>
        <time>2018-06-09T07:41:16Z</time>
      </trkpt>
      <trkpt lat="43.096784" lon="-2.154858">
        <ele>455.877</ele>
        <time>2018-06-09T07:44:03Z</time>
      </trkpt>
      <trkpt lat="43.096749" lon="-2.156686">
        <ele>463.983</ele>
        <time>2018-06-09T07:46:25Z</time>
      </trkpt>
      <trkpt lat="43.097259" lon="-2.157524">
        <ele>474.552</ele>
        <time>2018-06-09T07:47:59Z</time>
      </trkpt>
      <trkpt lat="43.098281" lon="-2.158363">
        <ele>478.359</ele>
        <time>2018-06-09T07:49:59Z</time>
      </trkpt>
      <trkpt lat="43.098627" lon="-2.159662">
        <ele>484.692</ele>
        <time>2018-06-09T07:51:43Z</time>
      </trkpt>
      <trkpt lat="43.099194" lon="-2.160284">
        <ele>475.567</ele>
        <time>2018-06-09T07:52:52Z</time>
      </trkpt>
      <trkpt lat="43.100073" lon="-2.160718">
        <ele>483.681</ele>
        <time>2018-06-09T07:54:24Z</time>
      </trkpt>
      <trkpt lat="43.100739" lon="-2.161667">
        <ele>487.019</ele>
        <time>2018-06-09T07:56:00Z</time>
      </trkpt>
      <trkpt lat="43.101370" lon="-2.162255">
        <ele>493.208</ele>
        <time>2018-06-09T07:57:14Z</time>
      </trkpt>
      <trkpt lat="43.102902" lon="-2.163064">
        <ele>501.478</ele>
        <time>2018-06-09T07:59:32Z</time>
      </trkpt>
      <trkpt lat="43.103248" lon="-2.163140">
        <ele>501.941</ele>
        <time>2018-06-09T07:59:53Z</time>
      </trkpt>
      <trkpt lat="43.104234" lon="-2.162782">
        <ele>497.182</ele>
        <time>2018-06-09T08:01:20Z</time>
      </trkpt>
      <trkpt lat="43.105110" lon="-2.162724">
        <ele>493.781</ele>
        <time>2018-06-09T08:02:40Z</time>
      </trkpt>
      <trkpt lat="43.106911" lon="-2.163486">
        <ele>500.047</ele>
        <time>2018-06-09T08:07:23Z</time>
      </trkpt>
      <trkpt lat="43.107660" lon="-2.163475">
        <ele>503.386</ele>
        <time>2018-06-09T08:08:54Z</time>
      </trkpt>
      <trkpt lat="43.108211" lon="-2.163359">
        <ele>506.763</ele>
        <time>2018-06-09T08:09:43Z</time>
      </trkpt>
      <trkpt lat="43.108521" lon="-2.162838">
        <ele>512.056</ele>
        <time>2018-06-09T08:10:29Z</time>
      </trkpt>
      <trkpt lat="43.108939" lon="-2.162905">
        <ele>517.328</ele>
        <time>2018-06-09T08:11:08Z</time>
      </trkpt>
      <trkpt lat="43.108750" lon="-2.163560">
        <ele>521.189</ele>
        <time>2018-06-09T08:12:05Z</time>
      </trkpt>
      <trkpt lat="43.108018" lon="-2.164378">
        <ele>526.917</ele>
        <time>2018-06-09T08:13:22Z</time>
      </trkpt>
      <trkpt lat="43.108145" lon="-2.164967">
        <ele>528.808</ele>
        <time>2018-06-09T08:14:03Z</time>
      </trkpt>
      <trkpt lat="43.108776" lon="-2.166157">
        <ele>534.644</ele>
        <time>2018-06-09T08:15:28Z</time>
      </trkpt>
      <trkpt lat="43.108672" lon="-2.166601">
        <ele>537.537</ele>
        <time>2018-06-09T08:16:01Z</time>
      </trkpt>
      <trkpt lat="43.107812" lon="-2.167979">
        <ele>545.288</ele>
        <time>2018-06-09T08:17:48Z</time>
      </trkpt>
      <trkpt lat="43.107283" lon="-2.168380">
        <ele>544.757</ele>
        <time>2018-06-09T08:18:38Z</time>
      </trkpt>
      <trkpt lat="43.107016" lon="-2.169347">
        <ele>542.353</ele>
        <time>2018-06-09T08:19:39Z</time>
      </trkpt>
      <trkpt lat="43.107072" lon="-2.169992">
        <ele>540.852</ele>
        <time>2018-06-09T08:20:17Z</time>
      </trkpt>
      <trkpt lat="43.106966" lon="-2.170235">
        <ele>540.889</ele>
        <time>2018-06-09T08:20:33Z</time>
      </trkpt>
      <trkpt lat="43.106796" lon="-2.170397">
        <ele>540.462</ele>
        <time>2018-06-09T08:20:50Z</time>
      </trkpt>
      <trkpt lat="43.106322" lon="-2.170439">
        <ele>537.966</ele>
        <time>2018-06-09T08:21:28Z</time>
      </trkpt>
      <trkpt lat="43.105679" lon="-2.171019">
        <ele>534.629</ele>
        <time>2018-06-09T08:22:32Z</time>
      </trkpt>
      <trkpt lat="43.105416" lon="-2.172076">
        <ele>530.721</ele>
        <time>2018-06-09T08:23:35Z</time>
      </trkpt>
      <trkpt lat="43.105542" lon="-2.172227">
        <ele>530.308</ele>
        <time>2018-06-09T08:23:49Z</time>
      </trkpt>
      <trkpt lat="43.106678" lon="-2.172439">
        <ele>524.098</ele>
        <time>2018-06-09T08:25:22Z</time>
      </trkpt>
      <trkpt lat="43.107216" lon="-2.172851">
        <ele>520.691</ele>
        <time>2018-06-09T08:26:10Z</time>
      </trkpt>
      <trkpt lat="43.107236" lon="-2.173106">
        <ele>520.282</ele>
        <time>2018-06-09T08:26:24Z</time>
      </trkpt>
      <trkpt lat="43.106414" lon="-2.175023">
        <ele>514.421</ele>
        <time>2018-06-09T08:28:32Z</time>
      </trkpt>
      <trkpt lat="43.106219" lon="-2.175015">
        <ele>516.857</ele>
        <time>2018-06-09T08:42:26Z</time>
      </trkpt>
      <trkpt lat="43.106738" lon="-2.174959">
        <ele>521.136</ele>
        <time>2018-06-09T08:46:47Z</time>
      </trkpt>
      <trkpt lat="43.107168" lon="-2.174440">
        <ele>528.863</ele>
        <time>2018-06-09T08:47:49Z</time>
      </trkpt>
      <trkpt lat="43.107434" lon="-2.174372">
        <ele>532.756</ele>
        <time>2018-06-09T08:50:16Z</time>
      </trkpt>
      <trkpt lat="43.108080" lon="-2.175241">
        <ele>530.738</ele>
        <time>2018-06-09T08:51:39Z</time>
      </trkpt>
      <trkpt lat="43.108556" lon="-2.175579">
        <ele>526.470</ele>
        <time>2018-06-09T08:52:25Z</time>
      </trkpt>
      <trkpt lat="43.108748" lon="-2.176601">
        <ele>527.417</ele>
        <time>2018-06-09T08:53:21Z</time>
      </trkpt>
      <trkpt lat="43.108629" lon="-2.178158">
        <ele>526.408</ele>
        <time>2018-06-09T08:54:58Z</time>
      </trkpt>
      <trkpt lat="43.109091" lon="-2.178424">
        <ele>533.675</ele>
        <time>2018-06-09T08:56:08Z</time>
      </trkpt>
      <trkpt lat="43.109946" lon="-2.179282">
        <ele>561.528</ele>
        <time>2018-06-09T08:59:05Z</time>
      </trkpt>
      <trkpt lat="43.111158" lon="-2.182308">
        <ele>574.529</ele>
        <time>2018-06-09T09:03:06Z</time>
      </trkpt>
      <trkpt lat="43.112360" lon="-2.184375">
        <ele>583.188</ele>
        <time>2018-06-09T09:06:08Z</time>
      </trkpt>
      <trkpt lat="43.112373" lon="-2.185289">
        <ele>580.224</ele>
        <time>2018-06-09T09:07:05Z</time>
      </trkpt>
      <trkpt lat="43.111402" lon="-2.186211">
        <ele>600.983</ele>
        <time>2018-06-09T09:09:25Z</time>
      </trkpt>
      <trkpt lat="43.111424" lon="-2.186986">
        <ele>606.780</ele>
        <time>2018-06-09T09:10:23Z</time>
      </trkpt>
      <trkpt lat="43.111200" lon="-2.188360">
        <ele>613.983</ele>
        <time>2018-06-09T09:11:57Z</time>
      </trkpt>
      <trkpt lat="43.110241" lon="-2.189368">
        <ele>629.329</ele>
        <time>2018-06-09T09:14:06Z</time>
      </trkpt>
      <trkpt lat="43.109343" lon="-2.190972">
        <ele>641.800</ele>
        <time>2018-06-09T09:16:27Z</time>
      </trkpt>
      <trkpt lat="43.108446" lon="-2.193009">
        <ele>649.520</ele>
        <time>2018-06-09T09:19:00Z</time>
      </trkpt>
      <trkpt lat="43.107658" lon="-2.193432">
        <ele>646.608</ele>
        <time>2018-06-09T09:20:08Z</time>
      </trkpt>
      <trkpt lat="43.106103" lon="-2.193555">
        <ele>638.954</ele>
        <time>2018-06-09T09:22:23Z</time>
      </trkpt>
      <trkpt lat="43.105354" lon="-2.193273">
        <ele>633.657</ele>
        <time>2018-06-09T09:23:24Z</time>
      </trkpt>
      <trkpt lat="43.104970" lon="-2.193292">
        <ele>631.748</ele>
        <time>2018-06-09T09:23:53Z</time>
      </trkpt>
      <trkpt lat="43.104850" lon="-2.194000">
        <ele>624.927</ele>
        <time>2018-06-09T09:24:42Z</time>
      </trkpt>
      <trkpt lat="43.104091" lon="-2.195344">
        <ele>618.243</ele>
        <time>2018-06-09T09:26:17Z</time>
      </trkpt>
      <trkpt lat="43.103862" lon="-2.196170">
        <ele>613.412</ele>
        <time>2018-06-09T09:27:19Z</time>
      </trkpt>
      <trkpt lat="43.102902" lon="-2.197719">
        <ele>609.119</ele>
        <time>2018-06-09T09:29:10Z</time>
      </trkpt>
      <trkpt lat="43.102738" lon="-2.199030">
        <ele>604.382</ele>
        <time>2018-06-09T09:31:16Z</time>
      </trkpt>
      <trkpt lat="43.102062" lon="-2.199408">
        <ele>599.554</ele>
        <time>2018-06-09T09:32:34Z</time>
      </trkpt>
      <trkpt lat="43.101468" lon="-2.199464">
        <ele>604.856</ele>
        <time>2018-06-09T09:33:45Z</time>
      </trkpt>
      <trkpt lat="43.100913" lon="-2.199420">
        <ele>610.011</ele>
        <time>2018-06-09T09:34:38Z</time>
      </trkpt>
      <trkpt lat="43.099915" lon="-2.199029">
        <ele>616.808</ele>
        <time>2018-06-09T09:36:07Z</time>
      </trkpt>
      <trkpt lat="43.099691" lon="-2.199096">
        <ele>620.657</ele>
        <time>2018-06-09T09:36:32Z</time>
      </trkpt>
      <trkpt lat="43.099245" lon="-2.200334">
        <ele>626.930</ele>
        <time>2018-06-09T09:38:08Z</time>
      </trkpt>
      <trkpt lat="43.097997" lon="-2.200542">
        <ele>633.141</ele>
        <time>2018-06-09T09:40:00Z</time>
      </trkpt>
      <trkpt lat="43.097523" lon="-2.200755">
        <ele>648.040</ele>
        <time>2018-06-09T09:41:32Z</time>
      </trkpt>
      <trkpt lat="43.097009" lon="-2.200689">
        <ele>663.476</ele>
        <time>2018-06-09T09:42:53Z</time>
      </trkpt>
      <trkpt lat="43.096675" lon="-2.201296">
        <ele>677.835</ele>
        <time>2018-06-09T09:44:29Z</time>
      </trkpt>
      <trkpt lat="43.096389" lon="-2.201138">
        <ele>687.482</ele>
        <time>2018-06-09T09:46:34Z</time>
      </trkpt>
      <trkpt lat="43.095477" lon="-2.202241">
        <ele>721.155</ele>
        <time>2018-06-09T09:49:31Z</time>
      </trkpt>
      <trkpt lat="43.094669" lon="-2.202193">
        <ele>730.286</ele>
        <time>2018-06-09T09:50:58Z</time>
      </trkpt>
      <trkpt lat="43.094155" lon="-2.202957">
        <ele>748.560</ele>
        <time>2018-06-09T09:52:40Z</time>
      </trkpt>
      <trkpt lat="43.093982" lon="-2.204156">
        <ele>763.926</ele>
        <time>2018-06-09T09:54:34Z</time>
      </trkpt>
      <trkpt lat="43.093640" lon="-2.204401">
        <ele>771.608</ele>
        <time>2018-06-09T09:55:45Z</time>
      </trkpt>
      <trkpt lat="43.092074" lon="-2.204287">
        <ele>821.160</ele>
        <time>2018-06-09T10:01:03Z</time>
      </trkpt>
      <trkpt lat="43.091699" lon="-2.203665">
        <ele>840.853</ele>
        <time>2018-06-09T10:02:58Z</time>
      </trkpt>
      <trkpt lat="43.091467" lon="-2.202527">
        <ele>861.084</ele>
        <time>2018-06-09T10:06:46Z</time>
      </trkpt>
      <trkpt lat="43.091378" lon="-2.202620">
        <ele>861.453</ele>
        <time>2018-06-09T10:07:41Z</time>
      </trkpt>
      <trkpt lat="43.091933" lon="-2.203988">
        <ele>830.779</ele>
        <time>2018-06-09T10:12:17Z</time>
      </trkpt>
      <trkpt lat="43.092353" lon="-2.204070">
        <ele>816.788</ele>
        <time>2018-06-09T10:13:23Z</time>
      </trkpt>
      <trkpt lat="43.092429" lon="-2.204221">
        <ele>811.485</ele>
        <time>2018-06-09T10:13:45Z</time>
      </trkpt>
      <trkpt lat="43.093578" lon="-2.204282">
        <ele>771.678</ele>
        <time>2018-06-09T10:16:39Z</time>
      </trkpt>
      <trkpt lat="43.093899" lon="-2.204446">
        <ele>765.897</ele>
        <time>2018-06-09T10:17:43Z</time>
      </trkpt>
      <trkpt lat="43.093903" lon="-2.204858">
        <ele>763.423</ele>
        <time>2018-06-09T10:18:45Z</time>
      </trkpt>
      <trkpt lat="43.092907" lon="-2.206997">
        <ele>734.125</ele>
        <time>2018-06-09T10:22:13Z</time>
      </trkpt>
      <trkpt lat="43.093209" lon="-2.206951">
        <ele>731.208</ele>
        <time>2018-06-09T10:22:53Z</time>
      </trkpt>
      <trkpt lat="43.093269" lon="-2.207064">
        <ele>731.261</ele>
        <time>2018-06-09T10:22:59Z</time>
      </trkpt>
      <trkpt lat="43.093267" lon="-2.207589">
        <ele>726.854</ele>
        <time>2018-06-09T10:23:28Z</time>
      </trkpt>
      <trkpt lat="43.093545" lon="-2.208276">
        <ele>719.295</ele>
        <time>2018-06-09T10:24:36Z</time>
      </trkpt>
      <trkpt lat="43.094662" lon="-2.208493">
        <ele>711.054</ele>
        <time>2018-06-09T10:26:28Z</time>
      </trkpt>
      <trkpt lat="43.095281" lon="-2.209236">
        <ele>708.620</ele>
        <time>2018-06-09T10:27:31Z</time>
      </trkpt>
      <trkpt lat="43.095679" lon="-2.210184">
        <ele>704.349</ele>
        <time>2018-06-09T10:28:33Z</time>
      </trkpt>
      <trkpt lat="43.096098" lon="-2.212422">
        <ele>703.366</ele>
        <time>2018-06-09T10:31:22Z</time>
      </trkpt>
      <trkpt lat="43.096973" lon="-2.215047">
        <ele>698.559</ele>
        <time>2018-06-09T10:34:14Z</time>
      </trkpt>
      <trkpt lat="43.097332" lon="-2.215688">
        <ele>695.182</ele>
        <time>2018-06-09T10:35:06Z</time>
      </trkpt>
      <trkpt lat="43.097925" lon="-2.216146">
        <ele>692.743</ele>
        <time>2018-06-09T10:36:06Z</time>
      </trkpt>
      <trkpt lat="43.098573" lon="-2.215586">
        <ele>677.817</ele>
        <time>2018-06-09T10:37:25Z</time>
      </trkpt>
      <trkpt lat="43.098971" lon="-2.214923">
        <ele>671.108</ele>
        <time>2018-06-09T10:38:20Z</time>
      </trkpt>
      <trkpt lat="43.099712" lon="-2.214514">
        <ele>666.350</ele>
        <time>2018-06-09T10:39:17Z</time>
      </trkpt>
      <trkpt lat="43.100150" lon="-2.214646">
        <ele>669.733</ele>
        <time>2018-06-09T10:39:55Z</time>
      </trkpt>
      <trkpt lat="43.100632" lon="-2.215499">
        <ele>668.794</ele>
        <time>2018-06-09T10:41:29Z</time>
      </trkpt>
      <trkpt lat="43.100550" lon="-2.216193">
        <ele>665.373</ele>
        <time>2018-06-09T10:42:06Z</time>
      </trkpt>
      <trkpt lat="43.100799" lon="-2.217413">
        <ele>655.769</ele>
        <time>2018-06-09T10:43:15Z</time>
      </trkpt>
      <trkpt lat="43.101192" lon="-2.218003">
        <ele>645.158</ele>
        <time>2018-06-09T10:44:04Z</time>
      </trkpt>
      <trkpt lat="43.101938" lon="-2.218320">
        <ele>630.765</ele>
        <time>2018-06-09T10:45:16Z</time>
      </trkpt>
      <trkpt lat="43.102627" lon="-2.219558">
        <ele>632.678</ele>
        <time>2018-06-09T10:46:46Z</time>
      </trkpt>
      <trkpt lat="43.102841" lon="-2.220793">
        <ele>619.745</ele>
        <time>2018-06-09T10:48:12Z</time>
      </trkpt>
      <trkpt lat="43.103382" lon="-2.221831">
        <ele>607.647</ele>
        <time>2018-06-09T10:49:30Z</time>
      </trkpt>
      <trkpt lat="43.103443" lon="-2.222867">
        <ele>599.511</ele>
        <time>2018-06-09T10:50:16Z</time>
      </trkpt>
      <trkpt lat="43.103718" lon="-2.223971">
        <ele>588.908</ele>
        <time>2018-06-09T10:51:21Z</time>
      </trkpt>
      <trkpt lat="43.103865" lon="-2.224236">
        <ele>584.136</ele>
        <time>2018-06-09T10:51:41Z</time>
      </trkpt>
      <trkpt lat="43.104802" lon="-2.224442">
        <ele>565.379</ele>
        <time>2018-06-09T10:53:14Z</time>
      </trkpt>
      <trkpt lat="43.105034" lon="-2.225642">
        <ele>550.920</ele>
        <time>2018-06-09T10:55:22Z</time>
      </trkpt>
      <trkpt lat="43.104744" lon="-2.226205">
        <ele>545.699</ele>
        <time>2018-06-09T10:56:00Z</time>
      </trkpt>
      <trkpt lat="43.103475" lon="-2.227319">
        <ele>519.745</ele>
        <time>2018-06-09T10:58:17Z</time>
      </trkpt>
      <trkpt lat="43.103445" lon="-2.227765">
        <ele>514.434</ele>
        <time>2018-06-09T10:58:45Z</time>
      </trkpt>
      <trkpt lat="43.103113" lon="-2.228321">
        <ele>505.341</ele>
        <time>2018-06-09T10:59:37Z</time>
      </trkpt>
      <trkpt lat="43.102751" lon="-2.229498">
        <ele>483.614</ele>
        <time>2018-06-09T11:01:13Z</time>
      </trkpt>
      <trkpt lat="43.102714" lon="-2.231278">
        <ele>460.171</ele>
        <time>2018-06-09T11:03:30Z</time>
      </trkpt>
      <trkpt lat="43.102306" lon="-2.230352">
        <ele>448.141</ele>
        <time>2018-06-09T11:04:42Z</time>
      </trkpt>
      <trkpt lat="43.102087" lon="-2.228858">
        <ele>437.515</ele>
        <time>2018-06-09T11:06:00Z</time>
      </trkpt>
      <trkpt lat="43.101921" lon="-2.230480">
        <ele>410.108</ele>
        <time>2018-06-09T11:08:30Z</time>
      </trkpt>
      <trkpt lat="43.101959" lon="-2.232231">
        <ele>408.799</ele>
        <time>2018-06-09T11:10:47Z</time>
      </trkpt>
      <trkpt lat="43.101687" lon="-2.233005">
        <ele>400.012</ele>
        <time>2018-06-09T11:11:52Z</time>
      </trkpt>
      <trkpt lat="43.101536" lon="-2.234336">
        <ele>376.473</ele>
        <time>2018-06-09T11:13:25Z</time>
      </trkpt>
      <trkpt lat="43.102230" lon="-2.235686">
        <ele>335.672</ele>
        <time>2018-06-09T11:15:57Z</time>
      </trkpt>
      <trkpt lat="43.102417" lon="-2.236524">
        <ele>336.178</ele>
        <time>2018-06-09T11:16:57Z</time>
      </trkpt>
      <trkpt lat="43.103118" lon="-2.237815">
        <ele>346.647</ele>
        <time>2018-06-09T11:19:09Z</time>
      </trkpt>
      <trkpt lat="43.103337" lon="-2.238552">
        <ele>349.184</ele>
        <time>2018-06-09T11:19:58Z</time>
      </trkpt>
      <trkpt lat="43.103761" lon="-2.238750">
        <ele>342.327</ele>
        <time>2018-06-09T11:20:47Z</time>
      </trkpt>
      <trkpt lat="43.103791" lon="-2.239806">
        <ele>331.787</ele>
        <time>2018-06-09T11:22:03Z</time>
      </trkpt>
      <trkpt lat="43.104186" lon="-2.240058">
        <ele>324.542</ele>
        <time>2018-06-09T11:22:47Z</time>
      </trkpt>
      <trkpt lat="43.104545" lon="-2.239916">
        <ele>320.226</ele>
        <time>2018-06-09T11:23:58Z</time>
      </trkpt>
      <trkpt lat="43.104601" lon="-2.240341">
        <ele>314.908</ele>
        <time>2018-06-09T11:24:41Z</time>
      </trkpt>
      <trkpt lat="43.104766" lon="-2.240523">
        <ele>314.070</ele>
        <time>2018-06-09T11:25:02Z</time>
      </trkpt>
      <trkpt lat="43.106662" lon="-2.240188">
        <ele>329.343</ele>
        <time>2018-06-09T11:29:01Z</time>
      </trkpt>
      <trkpt lat="43.108324" lon="-2.238775">
        <ele>319.334</ele>
        <time>2018-06-09T11:31:45Z</time>
      </trkpt>
      <trkpt lat="43.108586" lon="-2.238328">
        <ele>308.223</ele>
        <time>2018-06-09T11:32:37Z</time>
      </trkpt>
      <trkpt lat="43.108582" lon="-2.238958">
        <ele>298.639</ele>
        <time>2018-06-09T11:33:21Z</time>
      </trkpt>
      <trkpt lat="43.107766" lon="-2.240757">
        <ele>260.168</ele>
        <time>2018-06-09T11:35:49Z</time>
      </trkpt>
      <trkpt lat="43.107622" lon="-2.241398">
        <ele>248.135</ele>
        <time>2018-06-09T11:36:31Z</time>
      </trkpt>
      <trkpt lat="43.108003" lon="-2.241126">
        <ele>244.728</ele>
        <time>2018-06-09T11:37:29Z</time>
      </trkpt>
      <trkpt lat="43.108198" lon="-2.241192">
        <ele>243.848</ele>
        <time>2018-06-09T11:37:59Z</time>
      </trkpt>
      <trkpt lat="43.108165" lon="-2.241125">
        <ele>252.428</ele>
        <time>2018-07-07T05:49:00Z</time>
      </trkpt>
      <trkpt lat="43.107749" lon="-2.241413">
        <ele>253.489</ele>
        <time>2018-07-07T05:50:28Z</time>
      </trkpt>
      <trkpt lat="43.107742" lon="-2.242338">
        <ele>254.417</ele>
        <time>2018-07-07T05:51:38Z</time>
      </trkpt>
      <trkpt lat="43.107287" lon="-2.242834">
        <ele>259.608</ele>
        <time>2018-07-07T05:52:37Z</time>
      </trkpt>
      <trkpt lat="43.107056" lon="-2.243403">
        <ele>259.284</ele>
        <time>2018-07-07T05:53:19Z</time>
      </trkpt>
      <trkpt lat="43.107020" lon="-2.245025">
        <ele>264.078</ele>
        <time>2018-07-07T05:55:05Z</time>
      </trkpt>
      <trkpt lat="43.107230" lon="-2.247350">
        <ele>273.676</ele>
        <time>2018-07-07T05:57:40Z</time>
      </trkpt>
      <trkpt lat="43.106842" lon="-2.248806">
        <ele>282.293</ele>
        <time>2018-07-07T05:59:21Z</time>
      </trkpt>
      <trkpt lat="43.106655" lon="-2.248889">
        <ele>283.294</ele>
        <time>2018-07-07T05:59:36Z</time>
      </trkpt>
      <trkpt lat="43.106443" lon="-2.249455">
        <ele>286.623</ele>
        <time>2018-07-07T06:00:23Z</time>
      </trkpt>
      <trkpt lat="43.106048" lon="-2.249517">
        <ele>288.573</ele>
        <time>2018-07-07T06:00:51Z</time>
      </trkpt>
      <trkpt lat="43.105857" lon="-2.250282">
        <ele>293.812</ele>
        <time>2018-07-07T06:01:52Z</time>
      </trkpt>
      <trkpt lat="43.105810" lon="-2.251766">
        <ele>302.942</ele>
        <time>2018-07-07T06:03:18Z</time>
      </trkpt>
      <trkpt lat="43.105648" lon="-2.252387">
        <ele>306.322</ele>
        <time>2018-07-07T06:04:00Z</time>
      </trkpt>
      <trkpt lat="43.105907" lon="-2.253915">
        <ele>314.914</ele>
        <time>2018-07-07T06:05:52Z</time>
      </trkpt>
      <trkpt lat="43.106128" lon="-2.254668">
        <ele>320.208</ele>
        <time>2018-07-07T06:06:45Z</time>
      </trkpt>
      <trkpt lat="43.106402" lon="-2.255061">
        <ele>323.686</ele>
        <time>2018-07-07T06:07:26Z</time>
      </trkpt>
      <trkpt lat="43.106720" lon="-2.255240">
        <ele>327.980</ele>
        <time>2018-07-07T06:07:59Z</time>
      </trkpt>
      <trkpt lat="43.106554" lon="-2.254908">
        <ele>331.798</ele>
        <time>2018-07-07T06:09:06Z</time>
      </trkpt>
      <trkpt lat="43.106606" lon="-2.254086">
        <ele>337.575</ele>
        <time>2018-07-07T06:10:35Z</time>
      </trkpt>
      <trkpt lat="43.106780" lon="-2.254225">
        <ele>343.836</ele>
        <time>2018-07-07T06:12:59Z</time>
      </trkpt>
      <trkpt lat="43.106859" lon="-2.254720">
        <ele>350.045</ele>
        <time>2018-07-07T06:13:38Z</time>
      </trkpt>
      <trkpt lat="43.107540" lon="-2.255239">
        <ele>359.625</ele>
        <time>2018-07-07T06:14:49Z</time>
      </trkpt>
      <trkpt lat="43.107825" lon="-2.255276">
        <ele>362.524</ele>
        <time>2018-07-07T06:15:10Z</time>
      </trkpt>
      <trkpt lat="43.108369" lon="-2.255973">
        <ele>371.616</ele>
        <time>2018-07-07T06:16:09Z</time>
      </trkpt>
      <trkpt lat="43.109229" lon="-2.256574">
        <ele>380.376</ele>
        <time>2018-07-07T06:17:45Z</time>
      </trkpt>
      <trkpt lat="43.109465" lon="-2.257171">
        <ele>382.713</ele>
        <time>2018-07-07T06:18:52Z</time>
      </trkpt>
      <trkpt lat="43.109278" lon="-2.257443">
        <ele>382.208</ele>
        <time>2018-07-07T06:19:35Z</time>
      </trkpt>
      <trkpt lat="43.109044" lon="-2.257567">
        <ele>383.773</ele>
        <time>2018-07-07T06:20:04Z</time>
      </trkpt>
      <trkpt lat="43.107900" lon="-2.257560">
        <ele>403.497</ele>
        <time>2018-07-07T06:22:31Z</time>
      </trkpt>
      <trkpt lat="43.107813" lon="-2.257713">
        <ele>409.175</ele>
        <time>2018-07-07T06:23:02Z</time>
      </trkpt>
      <trkpt lat="43.109434" lon="-2.259302">
        <ele>456.262</ele>
        <time>2018-07-07T06:29:18Z</time>
      </trkpt>
      <trkpt lat="43.110156" lon="-2.259718">
        <ele>465.963</ele>
        <time>2018-07-07T06:31:37Z</time>
      </trkpt>
      <trkpt lat="43.110199" lon="-2.260315">
        <ele>490.832</ele>
        <time>2018-07-07T06:35:56Z</time>
      </trkpt>
      <trkpt lat="43.110380" lon="-2.260601">
        <ele>501.982</ele>
        <time>2018-07-07T06:37:46Z</time>
      </trkpt>
      <trkpt lat="43.110163" lon="-2.261112">
        <ele>517.391</ele>
        <time>2018-07-07T06:40:35Z</time>
      </trkpt>
      <trkpt lat="43.110355" lon="-2.261630">
        <ele>538.949</ele>
        <time>2018-07-07T06:44:25Z</time>
      </trkpt>
      <trkpt lat="43.110540" lon="-2.261600">
        <ele>543.202</ele>
        <time>2018-07-07T06:49:59Z</time>
      </trkpt>
      <trkpt lat="43.111072" lon="-2.261895">
        <ele>555.722</ele>
        <time>2018-07-07T06:51:40Z</time>
      </trkpt>
      <trkpt lat="43.111050" lon="-2.262008">
        <ele>558.108</ele>
        <time>2018-07-07T06:52:13Z</time>
      </trkpt>
      <trkpt lat="43.111741" lon="-2.262537">
        <ele>579.346</ele>
        <time>2018-07-07T06:55:05Z</time>
      </trkpt>
      <trkpt lat="43.112312" lon="-2.262452">
        <ele>582.250</ele>
        <time>2018-07-07T06:56:42Z</time>
      </trkpt>
      <trkpt lat="43.112579" lon="-2.262715">
        <ele>587.548</ele>
        <time>2018-07-07T06:57:28Z</time>
      </trkpt>
      <trkpt lat="43.112585" lon="-2.262949">
        <ele>592.365</ele>
        <time>2018-07-07T06:57:59Z</time>
      </trkpt>
      <trkpt lat="43.112259" lon="-2.263408">
        <ele>608.176</ele>
        <time>2018-07-07T06:59:32Z</time>
      </trkpt>
      <trkpt lat="43.112059" lon="-2.264796">
        <ele>648.535</ele>
        <time>2018-07-07T07:05:24Z</time>
      </trkpt>
      <trkpt lat="43.112208" lon="-2.264576">
        <ele>647.515</ele>
        <time>2018-07-07T07:07:10Z</time>
      </trkpt>
      <trkpt lat="43.112632" lon="-2.264985">
        <ele>656.784</ele>
        <time>2018-07-07T07:09:15Z</time>
      </trkpt>
      <trkpt lat="43.113450" lon="-2.267135">
        <ele>679.333</ele>
        <time>2018-07-07T07:14:25Z</time>
      </trkpt>
      <trkpt lat="43.113334" lon="-2.267458">
        <ele>687.023</ele>
        <time>2018-07-07T07:16:11Z</time>
      </trkpt>
      <trkpt lat="43.113200" lon="-2.267424">
        <ele>687.015</ele>
        <time>2018-07-07T07:17:08Z</time>
      </trkpt>
      <trkpt lat="43.113252" lon="-2.267719">
        <ele>691.308</ele>
        <time>2018-07-07T07:17:52Z</time>
      </trkpt>
      <trkpt lat="43.113067" lon="-2.268162">
        <ele>697.085</ele>
        <time>2018-07-07T07:18:34Z</time>
      </trkpt>
      <trkpt lat="43.112681" lon="-2.268581">
        <ele>704.769</ele>
        <time>2018-07-07T07:19:44Z</time>
      </trkpt>
      <trkpt lat="43.112082" lon="-2.269706">
        <ele>719.297</ele>
        <time>2018-07-07T07:21:57Z</time>
      </trkpt>
      <trkpt lat="43.111584" lon="-2.271049">
        <ele>740.344</ele>
        <time>2018-07-07T07:24:37Z</time>
      </trkpt>
      <trkpt lat="43.109183" lon="-2.273174">
        <ele>838.855</ele>
        <time>2018-07-07T07:37:58Z</time>
      </trkpt>
      <trkpt lat="43.108595" lon="-2.274053">
        <ele>834.564</ele>
        <time>2018-07-07T07:40:00Z</time>
      </trkpt>
      <trkpt lat="43.108082" lon="-2.274225">
        <ele>848.014</ele>
        <time>2018-07-07T07:41:28Z</time>
      </trkpt>
      <trkpt lat="43.106865" lon="-2.275323">
        <ele>898.033</ele>
        <time>2018-07-07T07:46:02Z</time>
      </trkpt>
      <trkpt lat="43.106704" lon="-2.279169">
        <ele>966.289</ele>
        <time>2018-07-07T07:56:24Z</time>
      </trkpt>
      <trkpt lat="43.106560" lon="-2.279487">
        <ele>965.306</ele>
        <time>2018-07-07T07:58:24Z</time>
      </trkpt>
      <trkpt lat="43.106990" lon="-2.281352">
        <ele>946.526</ele>
        <time>2018-07-07T08:13:09Z</time>
      </trkpt>
      <trkpt lat="43.107244" lon="-2.283331">
        <ele>927.308</ele>
        <time>2018-07-07T08:16:42Z</time>
      </trkpt>
      <trkpt lat="43.107695" lon="-2.285003">
        <ele>931.610</ele>
        <time>2018-07-07T08:19:24Z</time>
      </trkpt>
      <trkpt lat="43.108422" lon="-2.285310">
        <ele>916.774</ele>
        <time>2018-07-07T08:20:39Z</time>
      </trkpt>
      <trkpt lat="43.109830" lon="-2.285593">
        <ele>888.492</ele>
        <time>2018-07-07T08:22:55Z</time>
      </trkpt>
      <trkpt lat="43.112000" lon="-2.288122">
        <ele>856.149</ele>
        <time>2018-07-07T08:27:40Z</time>
      </trkpt>
      <trkpt lat="43.113344" lon="-2.288820">
        <ele>860.090</ele>
        <time>2018-07-07T08:30:07Z</time>
      </trkpt>
      <trkpt lat="43.113909" lon="-2.289434">
        <ele>852.829</ele>
        <time>2018-07-07T08:31:11Z</time>
      </trkpt>
      <trkpt lat="43.114157" lon="-2.289875">
        <ele>847.049</ele>
        <time>2018-07-07T08:31:43Z</time>
      </trkpt>
      <trkpt lat="43.114414" lon="-2.290970">
        <ele>834.518</ele>
        <time>2018-07-07T08:32:55Z</time>
      </trkpt>
      <trkpt lat="43.114469" lon="-2.292027">
        <ele>825.958</ele>
        <time>2018-07-07T08:34:02Z</time>
      </trkpt>
      <trkpt lat="43.115458" lon="-2.292105">
        <ele>812.952</ele>
        <time>2018-07-07T08:35:40Z</time>
      </trkpt>
      <trkpt lat="43.116116" lon="-2.292381">
        <ele>803.817</ele>
        <time>2018-07-07T08:36:29Z</time>
      </trkpt>
      <trkpt lat="43.116277" lon="-2.292681">
        <ele>799.408</ele>
        <time>2018-07-07T08:36:53Z</time>
      </trkpt>
      <trkpt lat="43.116127" lon="-2.293233">
        <ele>793.287</ele>
        <time>2018-07-07T08:37:32Z</time>
      </trkpt>
      <trkpt lat="43.116398" lon="-2.293355">
        <ele>786.081</ele>
        <time>2018-07-07T08:38:09Z</time>
      </trkpt>
      <trkpt lat="43.116763" lon="-2.293406">
        <ele>780.779</ele>
        <time>2018-07-07T08:38:36Z</time>
      </trkpt>
      <trkpt lat="43.117505" lon="-2.293138">
        <ele>768.246</ele>
        <time>2018-07-07T08:39:39Z</time>
      </trkpt>
      <trkpt lat="43.118289" lon="-2.293755">
        <ele>756.647</ele>
        <time>2018-07-07T08:40:54Z</time>
      </trkpt>
      <trkpt lat="43.118605" lon="-2.294636">
        <ele>760.056</ele>
        <time>2018-07-07T08:41:55Z</time>
      </trkpt>
      <trkpt lat="43.118963" lon="-2.295150">
        <ele>761.576</ele>
        <time>2018-07-07T08:42:47Z</time>
      </trkpt>
      <trkpt lat="43.119296" lon="-2.295085">
        <ele>755.255</ele>
        <time>2018-07-07T08:43:19Z</time>
      </trkpt>
      <trkpt lat="43.119645" lon="-2.295224">
        <ele>752.325</ele>
        <time>2018-07-07T08:43:47Z</time>
      </trkpt>
      <trkpt lat="43.121146" lon="-2.296304">
        <ele>772.026</ele>
        <time>2018-07-07T08:47:50Z</time>
      </trkpt>
      <trkpt lat="43.121470" lon="-2.297426">
        <ele>787.408</ele>
        <time>2018-07-07T08:49:40Z</time>
      </trkpt>
      <trkpt lat="43.121955" lon="-2.297704">
        <ele>797.508</ele>
        <time>2018-07-07T08:50:52Z</time>
      </trkpt>
      <trkpt lat="43.122499" lon="-2.298581">
        <ele>803.834</ele>
        <time>2018-07-07T08:52:19Z</time>
      </trkpt>
      <trkpt lat="43.123172" lon="-2.300208">
        <ele>819.158</ele>
        <time>2018-07-07T08:54:40Z</time>
      </trkpt>
      <trkpt lat="43.123369" lon="-2.300465">
        <ele>822.086</ele>
        <time>2018-07-07T08:55:08Z</time>
      </trkpt>
      <trkpt lat="43.124539" lon="-2.301011">
        <ele>797.053</ele>
        <time>2018-07-07T08:57:01Z</time>
      </trkpt>
      <trkpt lat="43.125873" lon="-2.303400">
        <ele>792.254</ele>
        <time>2018-07-07T09:00:10Z</time>
      </trkpt>
      <trkpt lat="43.126327" lon="-2.303657">
        <ele>792.263</ele>
        <time>2018-07-07T09:00:52Z</time>
      </trkpt>
      <trkpt lat="43.126912" lon="-2.304265">
        <ele>789.353</ele>
        <time>2018-07-07T09:01:55Z</time>
      </trkpt>
      <trkpt lat="43.127842" lon="-2.303922">
        <ele>809.572</ele>
        <time>2018-07-07T09:04:03Z</time>
      </trkpt>
      <trkpt lat="43.128812" lon="-2.304206">
        <ele>822.534</ele>
        <time>2018-07-07T09:05:57Z</time>
      </trkpt>
      <trkpt lat="43.129071" lon="-2.304561">
        <ele>831.255</ele>
        <time>2018-07-07T09:06:47Z</time>
      </trkpt>
      <trkpt lat="43.129173" lon="-2.305298">
        <ele>843.610</ele>
        <time>2018-07-07T09:08:07Z</time>
      </trkpt>
      <trkpt lat="43.131299" lon="-2.306206">
        <ele>910.908</ele>
        <time>2018-07-07T09:15:17Z</time>
      </trkpt>
      <trkpt lat="43.131094" lon="-2.306645">
        <ele>919.665</ele>
        <time>2018-07-07T09:17:23Z</time>
      </trkpt>
      <trkpt lat="43.131430" lon="-2.307062">
        <ele>927.329</ele>
        <time>2018-07-07T09:21:31Z</time>
      </trkpt>
      <trkpt lat="43.131797" lon="-2.309435">
        <ele>901.877</ele>
        <time>2018-07-07T09:24:37Z</time>
      </trkpt>
      <trkpt lat="43.132034" lon="-2.310075">
        <ele>891.244</ele>
        <time>2018-07-07T09:25:41Z</time>
      </trkpt>
      <trkpt lat="43.131858" lon="-2.310362">
        <ele>890.885</ele>
        <time>2018-07-07T09:26:07Z</time>
      </trkpt>
      <trkpt lat="43.131029" lon="-2.310558">
        <ele>881.654</ele>
        <time>2018-07-07T09:27:26Z</time>
      </trkpt>
      <trkpt lat="43.130992" lon="-2.311142">
        <ele>869.684</ele>
        <time>2018-07-07T09:28:12Z</time>
      </trkpt>
      <trkpt lat="43.131123" lon="-2.313213">
        <ele>846.513</ele>
        <time>2018-07-07T09:31:12Z</time>
      </trkpt>
      <trkpt lat="43.131553" lon="-2.315325">
        <ele>840.358</ele>
        <time>2018-07-07T09:33:24Z</time>
      </trkpt>
      <trkpt lat="43.131424" lon="-2.318445">
        <ele>821.552</ele>
        <time>2018-07-07T09:36:26Z</time>
      </trkpt>
      <trkpt lat="43.131514" lon="-2.320551">
        <ele>809.517</ele>
        <time>2018-07-07T09:38:34Z</time>
      </trkpt>
      <trkpt lat="43.131722" lon="-2.321740">
        <ele>803.808</ele>
        <time>2018-07-07T09:39:49Z</time>
      </trkpt>
      <trkpt lat="43.131104" lon="-2.323358">
        <ele>791.357</ele>
        <time>2018-07-07T09:41:40Z</time>
      </trkpt>
      <trkpt lat="43.131035" lon="-2.324297">
        <ele>783.671</ele>
        <time>2018-07-07T09:42:37Z</time>
      </trkpt>
      <trkpt lat="43.130377" lon="-2.327001">
        <ele>759.589</ele>
        <time>2018-07-07T09:45:34Z</time>
      </trkpt>
      <trkpt lat="43.130171" lon="-2.327393">
        <ele>758.146</ele>
        <time>2018-07-07T09:46:04Z</time>
      </trkpt>
      <trkpt lat="43.130164" lon="-2.328857">
        <ele>754.747</ele>
        <time>2018-07-07T09:47:35Z</time>
      </trkpt>
      <trkpt lat="43.129517" lon="-2.330391">
        <ele>765.866</ele>
        <time>2018-07-07T09:49:41Z</time>
      </trkpt>
      <trkpt lat="43.129651" lon="-2.330739">
        <ele>765.816</ele>
        <time>2018-07-07T09:49:55Z</time>
      </trkpt>
      <trkpt lat="43.129611" lon="-2.331583">
        <ele>771.115</ele>
        <time>2018-07-07T09:51:16Z</time>
      </trkpt>
      <trkpt lat="43.128982" lon="-2.333784">
        <ele>784.063</ele>
        <time>2018-07-07T09:56:24Z</time>
      </trkpt>
      <trkpt lat="43.127509" lon="-2.334977">
        <ele>736.944</ele>
        <time>2018-07-07T10:03:29Z</time>
      </trkpt>
      <trkpt lat="43.126965" lon="-2.336014">
        <ele>720.618</ele>
        <time>2018-07-07T10:11:22Z</time>
      </trkpt>
      <trkpt lat="43.126304" lon="-2.336502">
        <ele>710.008</ele>
        <time>2018-07-07T10:12:37Z</time>
      </trkpt>
      <trkpt lat="43.125783" lon="-2.336076">
        <ele>702.398</ele>
        <time>2018-07-07T10:13:31Z</time>
      </trkpt>
      <trkpt lat="43.125466" lon="-2.336246">
        <ele>700.442</ele>
        <time>2018-07-07T10:13:59Z</time>
      </trkpt>
      <trkpt lat="43.125199" lon="-2.336184">
        <ele>701.410</ele>
        <time>2018-07-07T10:14:28Z</time>
      </trkpt>
      <trkpt lat="43.124353" lon="-2.335552">
        <ele>694.627</ele>
        <time>2018-07-07T10:15:37Z</time>
      </trkpt>
      <trkpt lat="43.123840" lon="-2.335394">
        <ele>699.078</ele>
        <time>2018-07-07T10:16:24Z</time>
      </trkpt>
      <trkpt lat="43.123079" lon="-2.334475">
        <ele>688.977</ele>
        <time>2018-07-07T10:17:46Z</time>
      </trkpt>
      <trkpt lat="43.123508" lon="-2.335497">
        <ele>677.897</ele>
        <time>2018-07-07T10:19:01Z</time>
      </trkpt>
      <trkpt lat="43.123851" lon="-2.335855">
        <ele>676.446</ele>
        <time>2018-07-07T10:19:36Z</time>
      </trkpt>
      <trkpt lat="43.124322" lon="-2.335979">
        <ele>670.135</ele>
        <time>2018-07-07T10:20:19Z</time>
      </trkpt>
      <trkpt lat="43.124423" lon="-2.336180">
        <ele>666.886</ele>
        <time>2018-07-07T10:20:32Z</time>
      </trkpt>
      <trkpt lat="43.123587" lon="-2.336378">
        <ele>653.314</ele>
        <time>2018-07-07T10:21:47Z</time>
      </trkpt>
      <trkpt lat="43.122337" lon="-2.335590">
        <ele>634.608</ele>
        <time>2018-07-07T10:23:39Z</time>
      </trkpt>
      <trkpt lat="43.121506" lon="-2.334471">
        <ele>616.825</ele>
        <time>2018-07-07T10:25:12Z</time>
      </trkpt>
      <trkpt lat="43.120988" lon="-2.334289">
        <ele>614.479</ele>
        <time>2018-07-07T10:26:15Z</time>
      </trkpt>
      <trkpt lat="43.120328" lon="-2.334578">
        <ele>612.577</ele>
        <time>2018-07-07T10:27:14Z</time>
      </trkpt>
      <trkpt lat="43.119101" lon="-2.335515">
        <ele>600.464</ele>
        <time>2018-07-07T10:29:20Z</time>
      </trkpt>
      <trkpt lat="43.118427" lon="-2.335539">
        <ele>592.775</ele>
        <time>2018-07-07T10:30:20Z</time>
      </trkpt>
      <trkpt lat="43.118162" lon="-2.335716">
        <ele>586.034</ele>
        <time>2018-07-07T10:30:46Z</time>
      </trkpt>
      <trkpt lat="43.118814" lon="-2.336113">
        <ele>578.824</ele>
        <time>2018-07-07T10:32:49Z</time>
      </trkpt>
      <trkpt lat="43.119709" lon="-2.336197">
        <ele>565.883</ele>
        <time>2018-07-07T10:35:40Z</time>
      </trkpt>
      <trkpt lat="43.118978" lon="-2.336523">
        <ele>564.927</ele>
        <time>2018-07-07T10:36:51Z</time>
      </trkpt>
      <trkpt lat="43.118144" lon="-2.336586">
        <ele>553.868</ele>
        <time>2018-07-07T10:38:09Z</time>
      </trkpt>
      <trkpt lat="43.117497" lon="-2.336365">
        <ele>551.414</ele>
        <time>2018-07-07T10:39:00Z</time>
      </trkpt>
      <trkpt lat="43.117164" lon="-2.336043">
        <ele>548.508</ele>
        <time>2018-07-07T10:39:31Z</time>
      </trkpt>
      <trkpt lat="43.117095" lon="-2.335682">
        <ele>546.134</ele>
        <time>2018-07-07T10:39:53Z</time>
      </trkpt>
      <trkpt lat="43.117444" lon="-2.334364">
        <ele>529.888</ele>
        <time>2018-07-07T10:41:13Z</time>
      </trkpt>
      <trkpt lat="43.118279" lon="-2.332818">
        <ele>508.186</ele>
        <time>2018-07-07T10:43:04Z</time>
      </trkpt>
      <trkpt lat="43.119104" lon="-2.332070">
        <ele>488.463</ele>
        <time>2018-07-07T10:44:24Z</time>
      </trkpt>
      <trkpt lat="43.119505" lon="-2.331314">
        <ele>478.834</ele>
        <time>2018-07-07T10:45:20Z</time>
      </trkpt>
      <trkpt lat="43.119551" lon="-2.330900">
        <ele>476.913</ele>
        <time>2018-07-07T10:45:41Z</time>
      </trkpt>
      <trkpt lat="43.119011" lon="-2.329739">
        <ele>465.413</ele>
        <time>2018-07-07T10:47:49Z</time>
      </trkpt>
      <trkpt lat="43.118833" lon="-2.330006">
        <ele>460.182</ele>
        <time>2018-07-07T10:48:29Z</time>
      </trkpt>
      <trkpt lat="43.119142" lon="-2.330702">
        <ele>451.985</ele>
        <time>2018-07-07T10:50:15Z</time>
      </trkpt>
      <trkpt lat="43.118127" lon="-2.331069">
        <ele>432.289</ele>
        <time>2018-07-07T10:52:03Z</time>
      </trkpt>
      <trkpt lat="43.117316" lon="-2.331085">
        <ele>408.717</ele>
        <time>2018-07-07T10:53:40Z</time>
      </trkpt>
      <trkpt lat="43.116689" lon="-2.331930">
        <ele>388.908</ele>
        <time>2018-07-07T10:55:24Z</time>
      </trkpt>
      <trkpt lat="43.116116" lon="-2.332105">
        <ele>380.320</ele>
        <time>2018-07-07T10:56:18Z</time>
      </trkpt>
      <trkpt lat="43.115817" lon="-2.332438">
        <ele>371.684</ele>
        <time>2018-07-07T10:56:54Z</time>
      </trkpt>
      <trkpt lat="43.115735" lon="-2.332368">
        <ele>369.232</ele>
        <time>2018-07-07T10:57:04Z</time>
      </trkpt>
      <trkpt lat="43.115740" lon="-2.330983">
        <ele>348.149</ele>
        <time>2018-07-07T10:58:44Z</time>
      </trkpt>
      <trkpt lat="43.115319" lon="-2.330659">
        <ele>338.520</ele>
        <time>2018-07-07T10:59:36Z</time>
      </trkpt>
      <trkpt lat="43.115314" lon="-2.330074">
        <ele>335.689</ele>
        <time>2018-07-07T11:00:14Z</time>
      </trkpt>
      <trkpt lat="43.115070" lon="-2.330214">
        <ele>331.759</ele>
        <time>2018-07-07T11:00:42Z</time>
      </trkpt>
      <trkpt lat="43.114899" lon="-2.330942">
        <ele>323.118</ele>
        <time>2018-07-07T11:01:30Z</time>
      </trkpt>
      <trkpt lat="43.114649" lon="-2.330124">
        <ele>316.433</ele>
        <time>2018-07-07T11:02:25Z</time>
      </trkpt>
      <trkpt lat="43.114694" lon="-2.329699">
        <ele>312.523</ele>
        <time>2018-07-07T11:02:53Z</time>
      </trkpt>
      <trkpt lat="43.114576" lon="-2.329590">
        <ele>309.615</ele>
        <time>2018-07-07T11:03:05Z</time>
      </trkpt>
      <trkpt lat="43.114406" lon="-2.329688">
        <ele>307.708</ele>
        <time>2018-07-07T11:03:45Z</time>
      </trkpt>
      <trkpt lat="43.114127" lon="-2.328811">
        <ele>310.145</ele>
        <time>2018-07-07T11:07:07Z</time>
      </trkpt>
      <trkpt lat="43.113733" lon="-2.327189">
        <ele>313.529</ele>
        <time>2018-07-07T11:08:49Z</time>
      </trkpt>
      <trkpt lat="43.113755" lon="-2.324199">
        <ele>318.367</ele>
        <time>2018-07-07T11:11:30Z</time>
      </trkpt>
      <trkpt lat="43.113303" lon="-2.323212">
        <ele>320.234</ele>
        <time>2018-07-07T11:12:40Z</time>
      </trkpt>
      <trkpt lat="43.111185" lon="-2.322332">
        <ele>324.545</ele>
        <time>2018-07-07T11:15:24Z</time>
      </trkpt>
      <trkpt lat="43.110648" lon="-2.321942">
        <ele>325.544</ele>
        <time>2018-07-07T11:16:14Z</time>
      </trkpt>
      <trkpt lat="43.110009" lon="-2.321132">
        <ele>326.994</ele>
        <time>2018-07-07T11:17:33Z</time>
      </trkpt>
      <trkpt lat="43.108864" lon="-2.319019">
        <ele>331.363</ele>
        <time>2018-07-07T11:19:37Z</time>
      </trkpt>
      <trkpt lat="43.108326" lon="-2.318434">
        <ele>332.774</ele>
        <time>2018-07-07T11:20:40Z</time>
      </trkpt>
      <trkpt lat="43.108045" lon="-2.317873">
        <ele>333.256</ele>
        <time>2018-07-07T11:21:18Z</time>
      </trkpt>
      <trkpt lat="43.107650" lon="-2.317557">
        <ele>334.221</ele>
        <time>2018-07-07T11:21:52Z</time>
      </trkpt>
      <trkpt lat="43.107024" lon="-2.317481">
        <ele>335.108</ele>
        <time>2018-07-07T11:22:41Z</time>
      </trkpt>
      <trkpt lat="43.105022" lon="-2.317938">
        <ele>336.689</ele>
        <time>2018-07-07T11:25:08Z</time>
      </trkpt>
      <trkpt lat="43.103803" lon="-2.316940">
        <ele>337.523</ele>
        <time>2018-07-07T11:26:55Z</time>
      </trkpt>
      <trkpt lat="43.103210" lon="-2.316823">
        <ele>338.071</ele>
        <time>2018-07-07T11:27:40Z</time>
      </trkpt>
      <trkpt lat="43.102197" lon="-2.317500">
        <ele>338.078</ele>
        <time>2018-07-07T11:29:05Z</time>
      </trkpt>
      <trkpt lat="43.101400" lon="-2.317715">
        <ele>338.589</ele>
        <time>2018-07-07T11:30:05Z</time>
      </trkpt>
      <trkpt lat="43.100700" lon="-2.317450">
        <ele>339.948</ele>
        <time>2018-07-07T11:31:02Z</time>
      </trkpt>
      <trkpt lat="43.100294" lon="-2.317013">
        <ele>341.448</ele>
        <time>2018-07-07T11:32:09Z</time>
      </trkpt>
      <trkpt lat="43.100206" lon="-2.317037">
        <ele>310.128</ele>
        <time>2018-07-21T05:22:06Z</time>
      </trkpt>
      <trkpt lat="43.099678" lon="-2.316887">
        <ele>335.189</ele>
        <time>2018-07-21T05:25:25Z</time>
      </trkpt>
      <trkpt lat="43.099252" lon="-2.317638">
        <ele>335.117</ele>
        <time>2018-07-21T05:26:33Z</time>
      </trkpt>
      <trkpt lat="43.099497" lon="-2.318126">
        <ele>338.008</ele>
        <time>2018-07-21T05:27:17Z</time>
      </trkpt>
      <trkpt lat="43.101266" lon="-2.319421">
        <ele>368.874</ele>
        <time>2018-07-21T05:30:54Z</time>
      </trkpt>
      <trkpt lat="43.101598" lon="-2.321662">
        <ele>395.758</ele>
        <time>2018-07-21T05:34:17Z</time>
      </trkpt>
      <trkpt lat="43.101717" lon="-2.321697">
        <ele>397.140</ele>
        <time>2018-07-21T05:34:27Z</time>
      </trkpt>
      <trkpt lat="43.101662" lon="-2.321575">
        <ele>400.578</ele>
        <time>2018-07-21T05:34:50Z</time>
      </trkpt>
      <trkpt lat="43.102078" lon="-2.321100">
        <ele>407.294</ele>
        <time>2018-07-21T05:35:43Z</time>
      </trkpt>
      <trkpt lat="43.102259" lon="-2.321127">
        <ele>411.532</ele>
        <time>2018-07-21T05:36:10Z</time>
      </trkpt>
      <trkpt lat="43.102236" lon="-2.322819">
        <ele>427.957</ele>
        <time>2018-07-21T05:38:15Z</time>
      </trkpt>
      <trkpt lat="43.102484" lon="-2.323355">
        <ele>436.125</ele>
        <time>2018-07-21T05:39:12Z</time>
      </trkpt>
      <trkpt lat="43.103230" lon="-2.323208">
        <ele>444.789</ele>
        <time>2018-07-21T05:40:23Z</time>
      </trkpt>
      <trkpt lat="43.103557" lon="-2.322790">
        <ele>453.406</ele>
        <time>2018-07-21T05:41:19Z</time>
      </trkpt>
      <trkpt lat="43.103542" lon="-2.323563">
        <ele>461.526</ele>
        <time>2018-07-21T05:42:31Z</time>
      </trkpt>
      <trkpt lat="43.103100" lon="-2.324461">
        <ele>475.908</ele>
        <time>2018-07-21T05:44:08Z</time>
      </trkpt>
      <trkpt lat="43.103464" lon="-2.324386">
        <ele>482.740</ele>
        <time>2018-07-21T05:45:06Z</time>
      </trkpt>
      <trkpt lat="43.104102" lon="-2.323483">
        <ele>493.714</ele>
        <time>2018-07-21T05:46:45Z</time>
      </trkpt>
      <trkpt lat="43.105120" lon="-2.323208">
        <ele>504.816</ele>
        <time>2018-07-21T05:48:18Z</time>
      </trkpt>
      <trkpt lat="43.105375" lon="-2.323294">
        <ele>507.754</ele>
        <time>2018-07-21T05:48:44Z</time>
      </trkpt>
      <trkpt lat="43.105814" lon="-2.323909">
        <ele>507.280</ele>
        <time>2018-07-21T05:49:44Z</time>
      </trkpt>
      <trkpt lat="43.106207" lon="-2.324820">
        <ele>507.778</ele>
        <time>2018-07-21T05:50:49Z</time>
      </trkpt>
      <trkpt lat="43.106328" lon="-2.325947">
        <ele>523.053</ele>
        <time>2018-07-21T05:52:32Z</time>
      </trkpt>
      <trkpt lat="43.105845" lon="-2.325624">
        <ele>531.291</ele>
        <time>2018-07-21T05:53:51Z</time>
      </trkpt>
      <trkpt lat="43.106216" lon="-2.326588">
        <ele>542.342</ele>
        <time>2018-07-21T05:55:30Z</time>
      </trkpt>
      <trkpt lat="43.106785" lon="-2.327523">
        <ele>553.322</ele>
        <time>2018-07-21T05:57:21Z</time>
      </trkpt>
      <trkpt lat="43.106171" lon="-2.327221">
        <ele>563.414</ele>
        <time>2018-07-21T05:58:43Z</time>
      </trkpt>
      <trkpt lat="43.106448" lon="-2.328353">
        <ele>582.208</ele>
        <time>2018-07-21T06:00:53Z</time>
      </trkpt>
      <trkpt lat="43.106092" lon="-2.328794">
        <ele>587.066</ele>
        <time>2018-07-21T06:02:01Z</time>
      </trkpt>
      <trkpt lat="43.105160" lon="-2.329158">
        <ele>589.460</ele>
        <time>2018-07-21T06:03:44Z</time>
      </trkpt>
      <trkpt lat="43.104304" lon="-2.329149">
        <ele>599.532</ele>
        <time>2018-07-21T06:05:17Z</time>
      </trkpt>
      <trkpt lat="43.103543" lon="-2.328627">
        <ele>597.170</ele>
        <time>2018-07-21T06:06:46Z</time>
      </trkpt>
      <trkpt lat="43.102252" lon="-2.328417">
        <ele>595.156</ele>
        <time>2018-07-21T06:08:40Z</time>
      </trkpt>
      <trkpt lat="43.101689" lon="-2.328103">
        <ele>595.114</ele>
        <time>2018-07-21T06:09:40Z</time>
      </trkpt>
      <trkpt lat="43.102069" lon="-2.328795">
        <ele>609.669</ele>
        <time>2018-07-21T06:11:21Z</time>
      </trkpt>
      <trkpt lat="43.102672" lon="-2.329412">
        <ele>622.567</ele>
        <time>2018-07-21T06:12:54Z</time>
      </trkpt>
      <trkpt lat="43.102727" lon="-2.329964">
        <ele>629.393</ele>
        <time>2018-07-21T06:13:45Z</time>
      </trkpt>
      <trkpt lat="43.100437" lon="-2.330454">
        <ele>691.365</ele>
        <time>2018-07-21T06:19:38Z</time>
      </trkpt>
      <trkpt lat="43.100330" lon="-2.330333">
        <ele>693.221</ele>
        <time>2018-07-21T06:24:21Z</time>
      </trkpt>
      <trkpt lat="43.099716" lon="-2.330918">
        <ele>704.708</ele>
        <time>2018-07-21T06:26:01Z</time>
      </trkpt>
      <trkpt lat="43.098413" lon="-2.331139">
        <ele>700.451</ele>
        <time>2018-07-21T06:28:16Z</time>
      </trkpt>
      <trkpt lat="43.097855" lon="-2.331573">
        <ele>707.155</ele>
        <time>2018-07-21T06:29:31Z</time>
      </trkpt>
      <trkpt lat="43.097551" lon="-2.332076">
        <ele>705.747</ele>
        <time>2018-07-21T06:30:28Z</time>
      </trkpt>
      <trkpt lat="43.097338" lon="-2.333169">
        <ele>704.745</ele>
        <time>2018-07-21T06:31:51Z</time>
      </trkpt>
      <trkpt lat="43.097355" lon="-2.334482">
        <ele>726.811</ele>
        <time>2018-07-21T06:34:03Z</time>
      </trkpt>
      <trkpt lat="43.098194" lon="-2.335914">
        <ele>764.829</ele>
        <time>2018-07-21T06:37:45Z</time>
      </trkpt>
      <trkpt lat="43.098656" lon="-2.336345">
        <ele>783.674</ele>
        <time>2018-07-21T06:39:21Z</time>
      </trkpt>
      <trkpt lat="43.099247" lon="-2.334214">
        <ele>836.462</ele>
        <time>2018-07-21T06:44:42Z</time>
      </trkpt>
      <trkpt lat="43.099448" lon="-2.333995">
        <ele>846.563</ele>
        <time>2018-07-21T06:50:09Z</time>
      </trkpt>
      <trkpt lat="43.099578" lon="-2.335208">
        <ele>858.144</ele>
        <time>2018-07-21T06:54:41Z</time>
      </trkpt>
      <trkpt lat="43.100466" lon="-2.337458">
        <ele>889.318</ele>
        <time>2018-07-21T06:58:40Z</time>
      </trkpt>
      <trkpt lat="43.100371" lon="-2.338448">
        <ele>884.008</ele>
        <time>2018-07-21T07:00:28Z</time>
      </trkpt>
      <trkpt lat="43.100607" lon="-2.340941">
        <ele>868.228</ele>
        <time>2018-07-21T07:05:22Z</time>
      </trkpt>
      <trkpt lat="43.100475" lon="-2.341637">
        <ele>851.882</ele>
        <time>2018-07-21T07:06:41Z</time>
      </trkpt>
      <trkpt lat="43.100981" lon="-2.343324">
        <ele>851.314</ele>
        <time>2018-07-21T07:09:11Z</time>
      </trkpt>
      <trkpt lat="43.102170" lon="-2.344593">
        <ele>841.782</ele>
        <time>2018-07-21T07:12:26Z</time>
      </trkpt>
      <trkpt lat="43.102754" lon="-2.345548">
        <ele>822.078</ele>
        <time>2018-07-21T07:14:27Z</time>
      </trkpt>
      <trkpt lat="43.101243" lon="-2.345119">
        <ele>793.246</ele>
        <time>2018-07-21T07:17:39Z</time>
      </trkpt>
      <trkpt lat="43.100532" lon="-2.345367">
        <ele>773.571</ele>
        <time>2018-07-21T07:19:08Z</time>
      </trkpt>
      <trkpt lat="43.099907" lon="-2.346509">
        <ele>761.529</ele>
        <time>2018-07-21T07:20:47Z</time>
      </trkpt>
      <trkpt lat="43.099482" lon="-2.346613">
        <ele>751.413</ele>
        <time>2018-07-21T07:21:41Z</time>
      </trkpt>
      <trkpt lat="43.099466" lon="-2.347480">
        <ele>733.143</ele>
        <time>2018-07-21T07:23:31Z</time>
      </trkpt>
      <trkpt lat="43.099621" lon="-2.347786">
        <ele>729.707</ele>
        <time>2018-07-21T07:26:15Z</time>
      </trkpt>
      <trkpt lat="43.099448" lon="-2.348341">
        <ele>718.208</ele>
        <time>2018-07-21T07:27:06Z</time>
      </trkpt>
      <trkpt lat="43.098928" lon="-2.347992">
        <ele>703.343</ele>
        <time>2018-07-21T07:28:07Z</time>
      </trkpt>
      <trkpt lat="43.098289" lon="-2.346758">
        <ele>697.037</ele>
        <time>2018-07-21T07:29:48Z</time>
      </trkpt>
      <trkpt lat="43.098169" lon="-2.346354">
        <ele>697.079</ele>
        <time>2018-07-21T07:30:18Z</time>
      </trkpt>
      <trkpt lat="43.098394" lon="-2.346069">
        <ele>692.737</ele>
        <time>2018-07-21T07:30:48Z</time>
      </trkpt>
      <trkpt lat="43.098202" lon="-2.344920">
        <ele>674.053</ele>
        <time>2018-07-21T07:32:15Z</time>
      </trkpt>
      <trkpt lat="43.097814" lon="-2.344555">
        <ele>663.461</ele>
        <time>2018-07-21T07:33:04Z</time>
      </trkpt>
      <trkpt lat="43.096964" lon="-2.344592">
        <ele>650.426</ele>
        <time>2018-07-21T07:34:21Z</time>
      </trkpt>
      <trkpt lat="43.096440" lon="-2.344172">
        <ele>638.984</ele>
        <time>2018-07-21T07:35:10Z</time>
      </trkpt>
      <trkpt lat="43.094791" lon="-2.343398">
        <ele>610.529</ele>
        <time>2018-07-21T07:37:39Z</time>
      </trkpt>
      <trkpt lat="43.093975" lon="-2.342207">
        <ele>587.000</ele>
        <time>2018-07-21T07:39:29Z</time>
      </trkpt>
      <trkpt lat="43.094050" lon="-2.343689">
        <ele>580.720</ele>
        <time>2018-07-21T07:41:38Z</time>
      </trkpt>
      <trkpt lat="43.094386" lon="-2.344295">
        <ele>577.408</ele>
        <time>2018-07-21T07:42:24Z</time>
      </trkpt>
      <trkpt lat="43.095389" lon="-2.345030">
        <ele>571.624</ele>
        <time>2018-07-21T07:43:55Z</time>
      </trkpt>
      <trkpt lat="43.095689" lon="-2.345738">
        <ele>566.868</ele>
        <time>2018-07-21T07:44:42Z</time>
      </trkpt>
      <trkpt lat="43.095616" lon="-2.346063">
        <ele>566.310</ele>
        <time>2018-07-21T07:45:01Z</time>
      </trkpt>
      <trkpt lat="43.095100" lon="-2.346719">
        <ele>562.518</ele>
        <time>2018-07-21T07:46:00Z</time>
      </trkpt>
      <trkpt lat="43.094362" lon="-2.349112">
        <ele>537.024</ele>
        <time>2018-07-21T07:48:42Z</time>
      </trkpt>
      <trkpt lat="43.092752" lon="-2.350089">
        <ele>512.572</ele>
        <time>2018-07-21T07:51:02Z</time>
      </trkpt>
      <trkpt lat="43.090979" lon="-2.351944">
        <ele>493.287</ele>
        <time>2018-07-21T07:53:45Z</time>
      </trkpt>
      <trkpt lat="43.090015" lon="-2.352182">
        <ele>488.925</ele>
        <time>2018-07-21T07:54:59Z</time>
      </trkpt>
      <trkpt lat="43.089082" lon="-2.351522">
        <ele>490.441</ele>
        <time>2018-07-21T07:56:19Z</time>
      </trkpt>
      <trkpt lat="43.088516" lon="-2.350921">
        <ele>487.581</ele>
        <time>2018-07-21T07:57:10Z</time>
      </trkpt>
      <trkpt lat="43.087900" lon="-2.350987">
        <ele>485.109</ele>
        <time>2018-07-21T07:58:26Z</time>
      </trkpt>
      <trkpt lat="43.087672" lon="-2.350884">
        <ele>497.108</ele>
        <time>2018-07-21T08:02:42Z</time>
      </trkpt>
      <trkpt lat="43.087015" lon="-2.351137">
        <ele>519.736</ele>
        <time>2018-07-21T08:04:41Z</time>
      </trkpt>
      <trkpt lat="43.086423" lon="-2.351576">
        <ele>537.550</ele>
        <time>2018-07-21T08:06:29Z</time>
      </trkpt>
      <trkpt lat="43.085526" lon="-2.351661">
        <ele>561.082</ele>
        <time>2018-07-21T08:08:53Z</time>
      </trkpt>
      <trkpt lat="43.084895" lon="-2.352136">
        <ele>577.860</ele>
        <time>2018-07-21T08:10:53Z</time>
      </trkpt>
      <trkpt lat="43.084592" lon="-2.352207">
        <ele>586.566</ele>
        <time>2018-07-21T08:11:38Z</time>
      </trkpt>
      <trkpt lat="43.084253" lon="-2.352603">
        <ele>598.524</ele>
        <time>2018-07-21T08:13:06Z</time>
      </trkpt>
      <trkpt lat="43.083469" lon="-2.352847">
        <ele>618.229</ele>
        <time>2018-07-21T08:15:27Z</time>
      </trkpt>
      <trkpt lat="43.083437" lon="-2.353006">
        <ele>621.657</ele>
        <time>2018-07-21T08:15:56Z</time>
      </trkpt>
      <trkpt lat="43.082934" lon="-2.353256">
        <ele>631.222</ele>
        <time>2018-07-21T08:17:05Z</time>
      </trkpt>
      <trkpt lat="43.082565" lon="-2.353651">
        <ele>637.962</ele>
        <time>2018-07-21T08:18:27Z</time>
      </trkpt>
      <trkpt lat="43.081567" lon="-2.353123">
        <ele>643.208</ele>
        <time>2018-07-21T08:20:27Z</time>
      </trkpt>
      <trkpt lat="43.080652" lon="-2.352167">
        <ele>653.308</ele>
        <time>2018-07-21T08:22:34Z</time>
      </trkpt>
      <trkpt lat="43.080289" lon="-2.352171">
        <ele>657.634</ele>
        <time>2018-07-21T08:23:26Z</time>
      </trkpt>
      <trkpt lat="43.079687" lon="-2.351902">
        <ele>662.958</ele>
        <time>2018-07-21T08:24:31Z</time>
      </trkpt>
      <trkpt lat="43.079103" lon="-2.351391">
        <ele>662.040</ele>
        <time>2018-07-21T08:26:32Z</time>
      </trkpt>
      <trkpt lat="43.077651" lon="-2.351235">
        <ele>679.348</ele>
        <time>2018-07-21T08:29:52Z</time>
      </trkpt>
      <trkpt lat="43.076649" lon="-2.352677">
        <ele>678.374</ele>
        <time>2018-07-21T08:32:31Z</time>
      </trkpt>
      <trkpt lat="43.075809" lon="-2.353613">
        <ele>671.682</ele>
        <time>2018-07-21T08:34:33Z</time>
      </trkpt>
      <trkpt lat="43.075202" lon="-2.353739">
        <ele>664.417</ele>
        <time>2018-07-21T08:35:27Z</time>
      </trkpt>
      <trkpt lat="43.075080" lon="-2.353981">
        <ele>664.455</ele>
        <time>2018-07-21T08:35:46Z</time>
      </trkpt>
      <trkpt lat="43.074727" lon="-2.353898">
        <ele>665.834</ele>
        <time>2018-07-21T08:43:32Z</time>
      </trkpt>
      <trkpt lat="43.074669" lon="-2.354046">
        <ele>666.855</ele>
        <time>2018-07-21T08:45:00Z</time>
      </trkpt>
      <trkpt lat="43.074645" lon="-2.353938">
        <ele>666.810</ele>
        <time>2018-07-21T08:46:24Z</time>
      </trkpt>
      <trkpt lat="43.074791" lon="-2.353840">
        <ele>666.308</ele>
        <time>2018-07-21T08:50:43Z</time>
      </trkpt>
      <trkpt lat="43.074840" lon="-2.354052">
        <ele>665.875</ele>
        <time>2018-07-21T08:51:01Z</time>
      </trkpt>
      <trkpt lat="43.074092" lon="-2.356317">
        <ele>697.059</ele>
        <time>2018-07-21T08:54:56Z</time>
      </trkpt>
      <trkpt lat="43.073922" lon="-2.358197">
        <ele>718.781</ele>
        <time>2018-07-21T08:57:48Z</time>
      </trkpt>
      <trkpt lat="43.073435" lon="-2.359235">
        <ele>735.049</ele>
        <time>2018-07-21T08:59:39Z</time>
      </trkpt>
      <trkpt lat="43.072866" lon="-2.359957">
        <ele>738.955</ele>
        <time>2018-07-21T09:00:44Z</time>
      </trkpt>
      <trkpt lat="43.072773" lon="-2.361333">
        <ele>745.153</ele>
        <time>2018-07-21T09:02:21Z</time>
      </trkpt>
      <trkpt lat="43.072176" lon="-2.362337">
        <ele>753.878</ele>
        <time>2018-07-21T09:03:49Z</time>
      </trkpt>
      <trkpt lat="43.071739" lon="-2.364713">
        <ele>803.326</ele>
        <time>2018-07-21T09:08:17Z</time>
      </trkpt>
      <trkpt lat="43.071613" lon="-2.364891">
        <ele>807.182</ele>
        <time>2018-07-21T09:08:46Z</time>
      </trkpt>
      <trkpt lat="43.070542" lon="-2.365366">
        <ele>843.643</ele>
        <time>2018-07-21T09:11:47Z</time>
      </trkpt>
      <trkpt lat="43.070398" lon="-2.365668">
        <ele>849.417</ele>
        <time>2018-07-21T09:12:19Z</time>
      </trkpt>
      <trkpt lat="43.069738" lon="-2.369057">
        <ele>861.908</ele>
        <time>2018-07-21T09:16:35Z</time>
      </trkpt>
      <trkpt lat="43.069562" lon="-2.370867">
        <ele>870.670</ele>
        <time>2018-07-21T09:18:33Z</time>
      </trkpt>
      <trkpt lat="43.069032" lon="-2.373125">
        <ele>897.014</ele>
        <time>2018-07-21T09:21:26Z</time>
      </trkpt>
      <trkpt lat="43.068327" lon="-2.374425">
        <ele>900.466</ele>
        <time>2018-07-21T09:23:14Z</time>
      </trkpt>
      <trkpt lat="43.068037" lon="-2.374574">
        <ele>894.194</ele>
        <time>2018-07-21T09:27:42Z</time>
      </trkpt>
      <trkpt lat="43.066693" lon="-2.376143">
        <ele>870.630</ele>
        <time>2018-07-21T09:30:05Z</time>
      </trkpt>
      <trkpt lat="43.066464" lon="-2.376110">
        <ele>871.548</ele>
        <time>2018-07-21T09:30:22Z</time>
      </trkpt>
      <trkpt lat="43.065916" lon="-2.376563">
        <ele>877.313</ele>
        <time>2018-07-21T09:31:17Z</time>
      </trkpt>
      <trkpt lat="43.064987" lon="-2.378370">
        <ele>897.021</ele>
        <time>2018-07-21T09:33:52Z</time>
      </trkpt>
      <trkpt lat="43.064727" lon="-2.377609">
        <ele>886.494</ele>
        <time>2018-07-21T09:35:39Z</time>
      </trkpt>
      <trkpt lat="43.063145" lon="-2.376275">
        <ele>873.057</ele>
        <time>2018-07-21T09:38:23Z</time>
      </trkpt>
      <trkpt lat="43.062592" lon="-2.376287">
        <ele>877.822</ele>
        <time>2018-07-21T09:39:18Z</time>
      </trkpt>
      <trkpt lat="43.061983" lon="-2.376095">
        <ele>890.808</ele>
        <time>2018-07-21T09:40:35Z</time>
      </trkpt>
      <trkpt lat="43.061302" lon="-2.375181">
        <ele>885.091</ele>
        <time>2018-07-21T09:42:04Z</time>
      </trkpt>
      <trkpt lat="43.059559" lon="-2.374422">
        <ele>897.575</ele>
        <time>2018-07-21T09:44:59Z</time>
      </trkpt>
      <trkpt lat="43.058512" lon="-2.374308">
        <ele>912.457</ele>
        <time>2018-07-21T09:47:23Z</time>
      </trkpt>
      <trkpt lat="43.058201" lon="-2.374475">
        <ele>914.335</ele>
        <time>2018-07-21T09:48:01Z</time>
      </trkpt>
      <trkpt lat="43.057636" lon="-2.374474">
        <ele>915.381</ele>
        <time>2018-07-21T09:49:12Z</time>
      </trkpt>
      <trkpt lat="43.056316" lon="-2.373281">
        <ele>870.189</ele>
        <time>2018-07-21T09:52:19Z</time>
      </trkpt>
      <trkpt lat="43.054337" lon="-2.371827">
        <ele>883.594</ele>
        <time>2018-07-21T09:56:18Z</time>
      </trkpt>
      <trkpt lat="43.053874" lon="-2.371712">
        <ele>895.172</ele>
        <time>2018-07-21T09:57:43Z</time>
      </trkpt>
      <trkpt lat="43.053528" lon="-2.371297">
        <ele>901.365</ele>
        <time>2018-07-21T09:58:57Z</time>
      </trkpt>
      <trkpt lat="43.053208" lon="-2.371141">
        <ele>904.768</ele>
        <time>2018-07-21T09:59:51Z</time>
      </trkpt>
      <trkpt lat="43.052688" lon="-2.369629">
        <ele>900.814</ele>
        <time>2018-07-21T10:02:15Z</time>
      </trkpt>
      <trkpt lat="43.052268" lon="-2.369092">
        <ele>890.308</ele>
        <time>2018-07-21T10:03:27Z</time>
      </trkpt>
      <trkpt lat="43.052043" lon="-2.368279">
        <ele>879.768</ele>
        <time>2018-07-21T10:04:33Z</time>
      </trkpt>
      <trkpt lat="43.051408" lon="-2.367235">
        <ele>869.652</ele>
        <time>2018-07-21T10:06:05Z</time>
      </trkpt>
      <trkpt lat="43.050594" lon="-2.364957">
        <ele>856.644</ele>
        <time>2018-07-21T10:09:12Z</time>
      </trkpt>
      <trkpt lat="43.049442" lon="-2.363774">
        <ele>878.782</ele>
        <time>2018-07-21T10:12:08Z</time>
      </trkpt>
      <trkpt lat="43.048921" lon="-2.362739">
        <ele>895.658</ele>
        <time>2018-07-21T10:14:17Z</time>
      </trkpt>
      <trkpt lat="43.048054" lon="-2.361581">
        <ele>918.646</ele>
        <time>2018-07-21T10:16:57Z</time>
      </trkpt>
      <trkpt lat="43.047440" lon="-2.360313">
        <ele>945.561</ele>
        <time>2018-07-21T10:22:28Z</time>
      </trkpt>
      <trkpt lat="43.047071" lon="-2.359965">
        <ele>937.499</ele>
        <time>2018-07-21T10:24:55Z</time>
      </trkpt>
      <trkpt lat="43.047022" lon="-2.360464">
        <ele>930.291</ele>
        <time>2018-07-21T10:26:08Z</time>
      </trkpt>
      <trkpt lat="43.047632" lon="-2.361266">
        <ele>917.281</ele>
        <time>2018-07-21T10:27:30Z</time>
      </trkpt>
      <trkpt lat="43.045709" lon="-2.361097">
        <ele>891.719</ele>
        <time>2018-07-21T10:30:10Z</time>
      </trkpt>
      <trkpt lat="43.045710" lon="-2.361576">
        <ele>878.708</ele>
        <time>2018-07-21T10:31:30Z</time>
      </trkpt>
      <trkpt lat="43.045963" lon="-2.362158">
        <ele>862.491</ele>
        <time>2018-07-21T10:32:48Z</time>
      </trkpt>
      <trkpt lat="43.045879" lon="-2.362431">
        <ele>853.345</ele>
        <time>2018-07-21T10:33:29Z</time>
      </trkpt>
      <trkpt lat="43.046443" lon="-2.362653">
        <ele>840.877</ele>
        <time>2018-07-21T10:34:44Z</time>
      </trkpt>
      <trkpt lat="43.046279" lon="-2.363231">
        <ele>831.215</ele>
        <time>2018-07-21T10:36:03Z</time>
      </trkpt>
      <trkpt lat="43.046378" lon="-2.363394">
        <ele>826.381</ele>
        <time>2018-07-21T10:36:26Z</time>
      </trkpt>
      <trkpt lat="43.047055" lon="-2.363854">
        <ele>821.169</ele>
        <time>2018-07-21T10:37:42Z</time>
      </trkpt>
      <trkpt lat="43.047632" lon="-2.364548">
        <ele>808.134</ele>
        <time>2018-07-21T10:38:59Z</time>
      </trkpt>
      <trkpt lat="43.047965" lon="-2.365587">
        <ele>797.542</ele>
        <time>2018-07-21T10:40:22Z</time>
      </trkpt>
      <trkpt lat="43.048038" lon="-2.366320">
        <ele>785.578</ele>
        <time>2018-07-21T10:41:11Z</time>
      </trkpt>
      <trkpt lat="43.047929" lon="-2.366587">
        <ele>780.733</ele>
        <time>2018-07-21T10:41:33Z</time>
      </trkpt>
      <trkpt lat="43.047507" lon="-2.366532">
        <ele>771.626</ele>
        <time>2018-07-21T10:42:15Z</time>
      </trkpt>
      <trkpt lat="43.046132" lon="-2.365857">
        <ele>754.708</ele>
        <time>2018-07-21T10:44:22Z</time>
      </trkpt>
      <trkpt lat="43.045463" lon="-2.365459">
        <ele>746.619</ele>
        <time>2018-07-21T10:45:23Z</time>
      </trkpt>
      <trkpt lat="43.045270" lon="-2.365163">
        <ele>742.233</ele>
        <time>2018-07-21T10:45:42Z</time>
      </trkpt>
      <trkpt lat="43.044916" lon="-2.365177">
        <ele>745.115</ele>
        <time>2018-07-21T10:46:31Z</time>
      </trkpt>
      <trkpt lat="43.044575" lon="-2.365428">
        <ele>747.013</ele>
        <time>2018-07-21T10:47:08Z</time>
      </trkpt>
      <trkpt lat="43.043378" lon="-2.365002">
        <ele>725.949</ele>
        <time>2018-07-21T10:49:12Z</time>
      </trkpt>
      <trkpt lat="43.043073" lon="-2.365132">
        <ele>717.777</ele>
        <time>2018-07-21T10:49:52Z</time>
      </trkpt>
      <trkpt lat="43.043017" lon="-2.365994">
        <ele>698.562</ele>
        <time>2018-07-21T10:51:13Z</time>
      </trkpt>
      <trkpt lat="43.041934" lon="-2.365879">
        <ele>673.540</ele>
        <time>2018-07-21T10:53:04Z</time>
      </trkpt>
      <trkpt lat="43.041637" lon="-2.366611">
        <ele>660.522</ele>
        <time>2018-07-21T10:54:11Z</time>
      </trkpt>
      <trkpt lat="43.040824" lon="-2.366761">
        <ele>649.062</ele>
        <time>2018-07-21T10:55:31Z</time>
      </trkpt>
      <trkpt lat="43.040309" lon="-2.367136">
        <ele>639.408</ele>
        <time>2018-07-21T10:56:33Z</time>
      </trkpt>
      <trkpt lat="43.039881" lon="-2.367213">
        <ele>642.708</ele>
        <time>2018-07-21T10:57:14Z</time>
      </trkpt>
      <trkpt lat="43.038912" lon="-2.366976">
        <ele>638.474</ele>
        <time>2018-07-21T10:58:40Z</time>
      </trkpt>
      <trkpt lat="43.037669" lon="-2.366287">
        <ele>637.088</ele>
        <time>2018-07-21T11:00:49Z</time>
      </trkpt>
      <trkpt lat="43.037233" lon="-2.365676">
        <ele>637.990</ele>
        <time>2018-07-21T11:01:43Z</time>
      </trkpt>
      <trkpt lat="43.036865" lon="-2.364766">
        <ele>635.588</ele>
        <time>2018-07-21T11:02:37Z</time>
      </trkpt>
      <trkpt lat="43.035898" lon="-2.364248">
        <ele>649.564</ele>
        <time>2018-07-21T11:04:18Z</time>
      </trkpt>
      <trkpt lat="43.035503" lon="-2.363695">
        <ele>651.982</ele>
        <time>2018-07-21T11:05:23Z</time>
      </trkpt>
      <trkpt lat="43.035328" lon="-2.362859">
        <ele>638.977</ele>
        <time>2018-07-21T11:06:37Z</time>
      </trkpt>
      <trkpt lat="43.034635" lon="-2.362014">
        <ele>643.225</ele>
        <time>2018-07-21T11:08:05Z</time>
      </trkpt>
      <trkpt lat="43.034381" lon="-2.361479">
        <ele>643.716</ele>
        <time>2018-07-21T11:08:52Z</time>
      </trkpt>
      <trkpt lat="43.034203" lon="-2.360496">
        <ele>642.376</ele>
        <time>2018-07-21T11:09:56Z</time>
      </trkpt>
      <trkpt lat="43.033496" lon="-2.359337">
        <ele>636.513</ele>
        <time>2018-07-21T11:11:38Z</time>
      </trkpt>
      <trkpt lat="43.032521" lon="-2.358567">
        <ele>625.408</ele>
        <time>2018-07-21T11:13:15Z</time>
      </trkpt>
      <trkpt lat="43.031852" lon="-2.358287">
        <ele>624.553</ele>
        <time>2018-07-21T11:14:04Z</time>
      </trkpt>
      <trkpt lat="43.031676" lon="-2.358303">
        <ele>623.577</ele>
        <time>2018-07-21T11:14:16Z</time>
      </trkpt>
      <trkpt lat="43.031209" lon="-2.358782">
        <ele>619.779</ele>
        <time>2018-07-21T11:15:13Z</time>
      </trkpt>
      <trkpt lat="43.030522" lon="-2.358592">
        <ele>619.747</ele>
        <time>2018-07-21T11:16:31Z</time>
      </trkpt>
      <trkpt lat="43.030055" lon="-2.359166">
        <ele>625.493</ele>
        <time>2018-07-21T11:17:35Z</time>
      </trkpt>
      <trkpt lat="43.029535" lon="-2.359379">
        <ele>623.041</ele>
        <time>2018-07-21T11:18:15Z</time>
      </trkpt>
      <trkpt lat="43.028564" lon="-2.358830">
        <ele>616.376</ele>
        <time>2018-07-21T11:19:53Z</time>
      </trkpt>
      <trkpt lat="43.027869" lon="-2.359273">
        <ele>620.114</ele>
        <time>2018-07-21T11:20:52Z</time>
      </trkpt>
      <trkpt lat="43.027263" lon="-2.359217">
        <ele>611.521</ele>
        <time>2018-07-21T11:21:44Z</time>
      </trkpt>
      <trkpt lat="43.025920" lon="-2.359528">
        <ele>612.541</ele>
        <time>2018-07-21T11:23:17Z</time>
      </trkpt>
      <trkpt lat="43.024808" lon="-2.361215">
        <ele>627.405</ele>
        <time>2018-07-21T11:26:47Z</time>
      </trkpt>
      <trkpt lat="43.024141" lon="-2.361255">
        <ele>624.508</ele>
        <time>2018-07-21T11:28:22Z</time>
      </trkpt>
      <trkpt lat="43.023557" lon="-2.361602">
        <ele>622.194</ele>
        <time>2018-07-21T11:30:44Z</time>
      </trkpt>
      <trkpt lat="43.023205" lon="-2.361613">
        <ele>624.018</ele>
        <time>2018-07-21T11:31:16Z</time>
      </trkpt>
      <trkpt lat="43.022447" lon="-2.360966">
        <ele>616.350</ele>
        <time>2018-07-21T11:32:28Z</time>
      </trkpt>
      <trkpt lat="43.022187" lon="-2.360902">
        <ele>615.828</ele>
        <time>2018-07-21T11:32:52Z</time>
      </trkpt>
      <trkpt lat="43.021754" lon="-2.361184">
        <ele>603.894</ele>
        <time>2018-07-21T11:33:40Z</time>
      </trkpt>
      <trkpt lat="43.021860" lon="-2.361339">
        <ele>598.552</ele>
        <time>2018-07-21T11:33:56Z</time>
      </trkpt>
      <trkpt lat="43.021837" lon="-2.362536">
        <ele>570.267</ele>
        <time>2018-07-21T11:35:29Z</time>
      </trkpt>
      <trkpt lat="43.021583" lon="-2.362394">
        <ele>568.265</ele>
        <time>2018-07-21T11:35:53Z</time>
      </trkpt>
      <trkpt lat="43.021099" lon="-2.362483">
        <ele>568.787</ele>
        <time>2018-07-21T11:36:35Z</time>
      </trkpt>
      <trkpt lat="43.020247" lon="-2.361744">
        <ele>575.042</ele>
        <time>2018-07-21T11:38:11Z</time>
      </trkpt>
      <trkpt lat="43.019493" lon="-2.359925">
        <ele>567.326</ele>
        <time>2018-07-21T11:40:30Z</time>
      </trkpt>
      <trkpt lat="43.019176" lon="-2.359925">
        <ele>561.508</ele>
        <time>2018-07-21T11:40:59Z</time>
      </trkpt>
      <trkpt lat="43.018603" lon="-2.360292">
        <ele>550.990</ele>
        <time>2018-07-21T11:41:53Z</time>
      </trkpt>
      <trkpt lat="43.016884" lon="-2.360448">
        <ele>521.194</ele>
        <time>2018-07-21T11:44:29Z</time>
      </trkpt>
      <trkpt lat="43.015898" lon="-2.360077">
        <ele>515.866</ele>
        <time>2018-07-21T11:46:11Z</time>
      </trkpt>
      <trkpt lat="43.015474" lon="-2.359553">
        <ele>510.124</ele>
        <time>2018-07-21T11:47:10Z</time>
      </trkpt>
      <trkpt lat="43.014963" lon="-2.359829">
        <ele>509.160</ele>
        <time>2018-07-21T11:48:08Z</time>
      </trkpt>
      <trkpt lat="43.014710" lon="-2.359598">
        <ele>511.098</ele>
        <time>2018-07-21T11:48:31Z</time>
      </trkpt>
      <trkpt lat="43.014644" lon="-2.359468">
        <ele>512.013</ele>
        <time>2018-07-21T11:48:44Z</time>
      </trkpt>
      <trkpt lat="43.014861" lon="-2.358899">
        <ele>514.441</ele>
        <time>2018-07-21T11:49:11Z</time>
      </trkpt>
      <trkpt lat="43.015072" lon="-2.358723">
        <ele>513.998</ele>
        <time>2018-07-21T11:49:32Z</time>
      </trkpt>
    </trkseg>
  </trk>
</gpx>
